<?xml version="1.0" encoding="UTF-8" standalone="no" ?>
<gpx xmlns="http://www.topografix.com/GPX/1/1" xmlns:xsi="http://www.w3.org/2001/XMLSchema-instance" xsi:schemaLocation="http://www.topografix.com/GPX/1/1 http://www.topografix.com/GPX/1/1/gpx.xsd" version="1.1" creator="VisuGPX - https://www.visugpx.com">
  <metadata>
    <name>R 056 Bois Jaulin</name>
  </metadata>
  <trk>
    <name><![CDATA[R 56_Circuit du Bois Jaulin]]></name>
    <trkseg>
      <trkpt lat="46.5054" lon="-1.57197">
        <ele>50</ele>
        <time>2014-01-08T13:24:52Z</time>
      </trkpt>
      <trkpt lat="46.5054" lon="-1.57197">
        <ele>50</ele>
        <time>2014-01-08T13:24:53Z</time>
      </trkpt>
      <trkpt lat="46.50544" lon="-1.57195">
        <ele>50</ele>
        <time>2014-01-08T13:26:20Z</time>
      </trkpt>
      <trkpt lat="46.50536" lon="-1.57195">
        <ele>50</ele>
        <time>2014-01-08T13:27:26Z</time>
      </trkpt>
      <trkpt lat="46.50535" lon="-1.57197">
        <ele>50</ele>
        <time>2014-01-08T13:27:27Z</time>
      </trkpt>
      <trkpt lat="46.50535" lon="-1.57207">
        <ele>50</ele>
        <time>2014-01-08T13:27:36Z</time>
      </trkpt>
      <trkpt lat="46.50537" lon="-1.57213">
        <ele>50</ele>
        <time>2014-01-08T13:27:41Z</time>
      </trkpt>
      <trkpt lat="46.50539" lon="-1.57218">
        <ele>50</ele>
        <time>2014-01-08T13:27:46Z</time>
      </trkpt>
      <trkpt lat="46.50543" lon="-1.5722">
        <ele>50</ele>
        <time>2014-01-08T13:27:51Z</time>
      </trkpt>
      <trkpt lat="46.50547" lon="-1.57221">
        <ele>50</ele>
        <time>2014-01-08T13:27:58Z</time>
      </trkpt>
      <trkpt lat="46.50552" lon="-1.5722">
        <ele>50</ele>
        <time>2014-01-08T13:28:03Z</time>
      </trkpt>
      <trkpt lat="46.50554" lon="-1.57217">
        <ele>50</ele>
        <time>2014-01-08T13:28:06Z</time>
      </trkpt>
      <trkpt lat="46.50558" lon="-1.57214">
        <ele>50</ele>
        <time>2014-01-08T13:28:10Z</time>
      </trkpt>
      <trkpt lat="46.50561" lon="-1.5721">
        <ele>50</ele>
        <time>2014-01-08T13:28:15Z</time>
      </trkpt>
      <trkpt lat="46.50564" lon="-1.57206">
        <ele>50</ele>
        <time>2014-01-08T13:28:19Z</time>
      </trkpt>
      <trkpt lat="46.50566" lon="-1.57202">
        <ele>50</ele>
        <time>2014-01-08T13:28:23Z</time>
      </trkpt>
      <trkpt lat="46.50569" lon="-1.57198">
        <ele>50</ele>
        <time>2014-01-08T13:28:27Z</time>
      </trkpt>
      <trkpt lat="46.5057" lon="-1.57197">
        <ele>50</ele>
        <time>2014-01-08T13:28:28Z</time>
      </trkpt>
      <trkpt lat="46.50576" lon="-1.57191">
        <ele>51</ele>
        <time>2014-01-08T13:28:36Z</time>
      </trkpt>
      <trkpt lat="46.5058" lon="-1.57188">
        <ele>51</ele>
        <time>2014-01-08T13:28:40Z</time>
      </trkpt>
      <trkpt lat="46.50583" lon="-1.57185">
        <ele>51</ele>
        <time>2014-01-08T13:28:44Z</time>
      </trkpt>
      <trkpt lat="46.50587" lon="-1.57182">
        <ele>52</ele>
        <time>2014-01-08T13:28:48Z</time>
      </trkpt>
      <trkpt lat="46.5059" lon="-1.57179">
        <ele>52</ele>
        <time>2014-01-08T13:28:52Z</time>
      </trkpt>
      <trkpt lat="46.50593" lon="-1.57176">
        <ele>52</ele>
        <time>2014-01-08T13:28:56Z</time>
      </trkpt>
      <trkpt lat="46.50596" lon="-1.57172">
        <ele>52</ele>
        <time>2014-01-08T13:29:00Z</time>
      </trkpt>
      <trkpt lat="46.50599" lon="-1.57169">
        <ele>52</ele>
        <time>2014-01-08T13:29:03Z</time>
      </trkpt>
      <trkpt lat="46.50602" lon="-1.57165">
        <ele>52</ele>
        <time>2014-01-08T13:29:06Z</time>
      </trkpt>
      <trkpt lat="46.50605" lon="-1.57162">
        <ele>52</ele>
        <time>2014-01-08T13:29:10Z</time>
      </trkpt>
      <trkpt lat="46.50608" lon="-1.57158">
        <ele>52</ele>
        <time>2014-01-08T13:29:15Z</time>
      </trkpt>
      <trkpt lat="46.50611" lon="-1.57155">
        <ele>52</ele>
        <time>2014-01-08T13:29:18Z</time>
      </trkpt>
      <trkpt lat="46.50614" lon="-1.57152">
        <ele>52</ele>
        <time>2014-01-08T13:29:21Z</time>
      </trkpt>
      <trkpt lat="46.50618" lon="-1.57149">
        <ele>52</ele>
        <time>2014-01-08T13:29:24Z</time>
      </trkpt>
      <trkpt lat="46.50621" lon="-1.57146">
        <ele>52</ele>
        <time>2014-01-08T13:29:27Z</time>
      </trkpt>
      <trkpt lat="46.50624" lon="-1.57143">
        <ele>52</ele>
        <time>2014-01-08T13:29:30Z</time>
      </trkpt>
      <trkpt lat="46.50625" lon="-1.57142">
        <ele>52</ele>
        <time>2014-01-08T13:29:31Z</time>
      </trkpt>
      <trkpt lat="46.50629" lon="-1.57138">
        <ele>52</ele>
        <time>2014-01-08T13:29:36Z</time>
      </trkpt>
      <trkpt lat="46.50632" lon="-1.57134">
        <ele>52</ele>
        <time>2014-01-08T13:29:39Z</time>
      </trkpt>
      <trkpt lat="46.50635" lon="-1.57131">
        <ele>52</ele>
        <time>2014-01-08T13:29:42Z</time>
      </trkpt>
      <trkpt lat="46.50638" lon="-1.57128">
        <ele>52</ele>
        <time>2014-01-08T13:29:47Z</time>
      </trkpt>
      <trkpt lat="46.5064" lon="-1.57123">
        <ele>52</ele>
        <time>2014-01-08T13:29:52Z</time>
      </trkpt>
      <trkpt lat="46.50643" lon="-1.57119">
        <ele>52</ele>
        <time>2014-01-08T13:29:57Z</time>
      </trkpt>
      <trkpt lat="46.50646" lon="-1.57116">
        <ele>52</ele>
        <time>2014-01-08T13:30:01Z</time>
      </trkpt>
      <trkpt lat="46.50649" lon="-1.57112">
        <ele>52</ele>
        <time>2014-01-08T13:30:06Z</time>
      </trkpt>
      <trkpt lat="46.50652" lon="-1.57108">
        <ele>52</ele>
        <time>2014-01-08T13:30:11Z</time>
      </trkpt>
      <trkpt lat="46.50656" lon="-1.57104">
        <ele>52</ele>
        <time>2014-01-08T13:30:15Z</time>
      </trkpt>
      <trkpt lat="46.50659" lon="-1.571">
        <ele>52</ele>
        <time>2014-01-08T13:30:19Z</time>
      </trkpt>
      <trkpt lat="46.50662" lon="-1.57097">
        <ele>52</ele>
        <time>2014-01-08T13:30:22Z</time>
      </trkpt>
      <trkpt lat="46.50665" lon="-1.57094">
        <ele>52</ele>
        <time>2014-01-08T13:30:25Z</time>
      </trkpt>
      <trkpt lat="46.50669" lon="-1.57091">
        <ele>52</ele>
        <time>2014-01-08T13:30:29Z</time>
      </trkpt>
      <trkpt lat="46.50672" lon="-1.57088">
        <ele>52</ele>
        <time>2014-01-08T13:30:32Z</time>
      </trkpt>
      <trkpt lat="46.50674" lon="-1.57086">
        <ele>52</ele>
        <time>2014-01-08T13:30:33Z</time>
      </trkpt>
      <trkpt lat="46.50678" lon="-1.57082">
        <ele>52</ele>
        <time>2014-01-08T13:30:37Z</time>
      </trkpt>
      <trkpt lat="46.50682" lon="-1.57078">
        <ele>52</ele>
        <time>2014-01-08T13:30:40Z</time>
      </trkpt>
      <trkpt lat="46.50685" lon="-1.57075">
        <ele>52</ele>
        <time>2014-01-08T13:30:43Z</time>
      </trkpt>
      <trkpt lat="46.50688" lon="-1.57071">
        <ele>52</ele>
        <time>2014-01-08T13:30:47Z</time>
      </trkpt>
      <trkpt lat="46.50691" lon="-1.57066">
        <ele>52</ele>
        <time>2014-01-08T13:30:51Z</time>
      </trkpt>
      <trkpt lat="46.50695" lon="-1.57063">
        <ele>52</ele>
        <time>2014-01-08T13:30:54Z</time>
      </trkpt>
      <trkpt lat="46.50697" lon="-1.57059">
        <ele>52</ele>
        <time>2014-01-08T13:30:57Z</time>
      </trkpt>
      <trkpt lat="46.50701" lon="-1.57056">
        <ele>52</ele>
        <time>2014-01-08T13:31:01Z</time>
      </trkpt>
      <trkpt lat="46.50704" lon="-1.57052">
        <ele>52</ele>
        <time>2014-01-08T13:31:05Z</time>
      </trkpt>
      <trkpt lat="46.50707" lon="-1.57048">
        <ele>52</ele>
        <time>2014-01-08T13:31:09Z</time>
      </trkpt>
      <trkpt lat="46.5071" lon="-1.57044">
        <ele>52</ele>
        <time>2014-01-08T13:31:13Z</time>
      </trkpt>
      <trkpt lat="46.50713" lon="-1.57041">
        <ele>52</ele>
        <time>2014-01-08T13:31:17Z</time>
      </trkpt>
      <trkpt lat="46.50716" lon="-1.57038">
        <ele>52</ele>
        <time>2014-01-08T13:31:20Z</time>
      </trkpt>
      <trkpt lat="46.50719" lon="-1.57034">
        <ele>52</ele>
        <time>2014-01-08T13:31:24Z</time>
      </trkpt>
      <trkpt lat="46.50723" lon="-1.5703">
        <ele>52</ele>
        <time>2014-01-08T13:31:30Z</time>
      </trkpt>
      <trkpt lat="46.50727" lon="-1.57031">
        <ele>52</ele>
        <time>2014-01-08T13:31:35Z</time>
      </trkpt>
      <trkpt lat="46.50728" lon="-1.57031">
        <ele>52</ele>
        <time>2014-01-08T13:31:36Z</time>
      </trkpt>
      <trkpt lat="46.50733" lon="-1.57036">
        <ele>52</ele>
        <time>2014-01-08T13:31:41Z</time>
      </trkpt>
      <trkpt lat="46.50735" lon="-1.57041">
        <ele>52</ele>
        <time>2014-01-08T13:31:45Z</time>
      </trkpt>
      <trkpt lat="46.50737" lon="-1.57046">
        <ele>52</ele>
        <time>2014-01-08T13:31:49Z</time>
      </trkpt>
      <trkpt lat="46.50739" lon="-1.57051">
        <ele>52</ele>
        <time>2014-01-08T13:31:53Z</time>
      </trkpt>
      <trkpt lat="46.50741" lon="-1.57056">
        <ele>52</ele>
        <time>2014-01-08T13:31:57Z</time>
      </trkpt>
      <trkpt lat="46.50744" lon="-1.57059">
        <ele>52</ele>
        <time>2014-01-08T13:32:00Z</time>
      </trkpt>
      <trkpt lat="46.50747" lon="-1.57063">
        <ele>52</ele>
        <time>2014-01-08T13:32:03Z</time>
      </trkpt>
      <trkpt lat="46.5075" lon="-1.57066">
        <ele>52</ele>
        <time>2014-01-08T13:32:06Z</time>
      </trkpt>
      <trkpt lat="46.50753" lon="-1.57071">
        <ele>52</ele>
        <time>2014-01-08T13:32:09Z</time>
      </trkpt>
      <trkpt lat="46.50755" lon="-1.57075">
        <ele>52</ele>
        <time>2014-01-08T13:32:12Z</time>
      </trkpt>
      <trkpt lat="46.50758" lon="-1.57079">
        <ele>52</ele>
        <time>2014-01-08T13:32:15Z</time>
      </trkpt>
      <trkpt lat="46.5076" lon="-1.57082">
        <ele>52</ele>
        <time>2014-01-08T13:32:18Z</time>
      </trkpt>
      <trkpt lat="46.50763" lon="-1.57086">
        <ele>52</ele>
        <time>2014-01-08T13:32:21Z</time>
      </trkpt>
      <trkpt lat="46.50765" lon="-1.5709">
        <ele>52</ele>
        <time>2014-01-08T13:32:24Z</time>
      </trkpt>
      <trkpt lat="46.50767" lon="-1.57095">
        <ele>52</ele>
        <time>2014-01-08T13:32:28Z</time>
      </trkpt>
      <trkpt lat="46.5077" lon="-1.571">
        <ele>52</ele>
        <time>2014-01-08T13:32:32Z</time>
      </trkpt>
      <trkpt lat="46.50773" lon="-1.57104">
        <ele>52</ele>
        <time>2014-01-08T13:32:36Z</time>
      </trkpt>
      <trkpt lat="46.50773" lon="-1.57106">
        <ele>52</ele>
        <time>2014-01-08T13:32:37Z</time>
      </trkpt>
      <trkpt lat="46.50778" lon="-1.57112">
        <ele>52</ele>
        <time>2014-01-08T13:32:44Z</time>
      </trkpt>
      <trkpt lat="46.50781" lon="-1.57115">
        <ele>52</ele>
        <time>2014-01-08T13:32:48Z</time>
      </trkpt>
      <trkpt lat="46.50784" lon="-1.5712">
        <ele>52</ele>
        <time>2014-01-08T13:32:52Z</time>
      </trkpt>
      <trkpt lat="46.50788" lon="-1.57123">
        <ele>52</ele>
        <time>2014-01-08T13:32:56Z</time>
      </trkpt>
      <trkpt lat="46.50791" lon="-1.57128">
        <ele>52</ele>
        <time>2014-01-08T13:33:00Z</time>
      </trkpt>
      <trkpt lat="46.50794" lon="-1.57133">
        <ele>52</ele>
        <time>2014-01-08T13:33:04Z</time>
      </trkpt>
      <trkpt lat="46.50796" lon="-1.57137">
        <ele>52</ele>
        <time>2014-01-08T13:33:07Z</time>
      </trkpt>
      <trkpt lat="46.50798" lon="-1.57141">
        <ele>52</ele>
        <time>2014-01-08T13:33:10Z</time>
      </trkpt>
      <trkpt lat="46.508" lon="-1.57146">
        <ele>52</ele>
        <time>2014-01-08T13:33:13Z</time>
      </trkpt>
      <trkpt lat="46.50802" lon="-1.5715">
        <ele>52</ele>
        <time>2014-01-08T13:33:16Z</time>
      </trkpt>
      <trkpt lat="46.50804" lon="-1.57155">
        <ele>52</ele>
        <time>2014-01-08T13:33:19Z</time>
      </trkpt>
      <trkpt lat="46.50806" lon="-1.57159">
        <ele>52</ele>
        <time>2014-01-08T13:33:22Z</time>
      </trkpt>
      <trkpt lat="46.50808" lon="-1.57163">
        <ele>52</ele>
        <time>2014-01-08T13:33:25Z</time>
      </trkpt>
      <trkpt lat="46.5081" lon="-1.57167">
        <ele>52</ele>
        <time>2014-01-08T13:33:28Z</time>
      </trkpt>
      <trkpt lat="46.50813" lon="-1.57172">
        <ele>52</ele>
        <time>2014-01-08T13:33:32Z</time>
      </trkpt>
      <trkpt lat="46.50816" lon="-1.57177">
        <ele>52</ele>
        <time>2014-01-08T13:33:36Z</time>
      </trkpt>
      <trkpt lat="46.50818" lon="-1.57182">
        <ele>52</ele>
        <time>2014-01-08T13:33:40Z</time>
      </trkpt>
      <trkpt lat="46.50819" lon="-1.57183">
        <ele>52</ele>
        <time>2014-01-08T13:33:41Z</time>
      </trkpt>
      <trkpt lat="46.50824" lon="-1.57192">
        <ele>52</ele>
        <time>2014-01-08T13:33:48Z</time>
      </trkpt>
      <trkpt lat="46.50827" lon="-1.57196">
        <ele>52</ele>
        <time>2014-01-08T13:33:52Z</time>
      </trkpt>
      <trkpt lat="46.50829" lon="-1.57201">
        <ele>52</ele>
        <time>2014-01-08T13:33:56Z</time>
      </trkpt>
      <trkpt lat="46.50832" lon="-1.57206">
        <ele>52</ele>
        <time>2014-01-08T13:34:00Z</time>
      </trkpt>
      <trkpt lat="46.50834" lon="-1.5721">
        <ele>52</ele>
        <time>2014-01-08T13:34:03Z</time>
      </trkpt>
      <trkpt lat="46.50837" lon="-1.57215">
        <ele>52</ele>
        <time>2014-01-08T13:34:07Z</time>
      </trkpt>
      <trkpt lat="46.50839" lon="-1.57219">
        <ele>52</ele>
        <time>2014-01-08T13:34:11Z</time>
      </trkpt>
      <trkpt lat="46.50842" lon="-1.57224">
        <ele>52</ele>
        <time>2014-01-08T13:34:15Z</time>
      </trkpt>
      <trkpt lat="46.50845" lon="-1.57227">
        <ele>52</ele>
        <time>2014-01-08T13:34:19Z</time>
      </trkpt>
      <trkpt lat="46.50848" lon="-1.57232">
        <ele>52</ele>
        <time>2014-01-08T13:34:23Z</time>
      </trkpt>
      <trkpt lat="46.5085" lon="-1.57236">
        <ele>52</ele>
        <time>2014-01-08T13:34:27Z</time>
      </trkpt>
      <trkpt lat="46.50853" lon="-1.5724">
        <ele>52</ele>
        <time>2014-01-08T13:34:30Z</time>
      </trkpt>
      <trkpt lat="46.50855" lon="-1.57244">
        <ele>52</ele>
        <time>2014-01-08T13:34:33Z</time>
      </trkpt>
      <trkpt lat="46.50857" lon="-1.57249">
        <ele>52</ele>
        <time>2014-01-08T13:34:36Z</time>
      </trkpt>
      <trkpt lat="46.50859" lon="-1.57254">
        <ele>52</ele>
        <time>2014-01-08T13:34:39Z</time>
      </trkpt>
      <trkpt lat="46.50862" lon="-1.57258">
        <ele>52</ele>
        <time>2014-01-08T13:34:42Z</time>
      </trkpt>
      <trkpt lat="46.50862" lon="-1.5726">
        <ele>52</ele>
        <time>2014-01-08T13:34:43Z</time>
      </trkpt>
      <trkpt lat="46.50867" lon="-1.57267">
        <ele>52</ele>
        <time>2014-01-08T13:34:50Z</time>
      </trkpt>
      <trkpt lat="46.50871" lon="-1.57269">
        <ele>52</ele>
        <time>2014-01-08T13:34:55Z</time>
      </trkpt>
      <trkpt lat="46.50875" lon="-1.57267">
        <ele>52</ele>
        <time>2014-01-08T13:35:00Z</time>
      </trkpt>
      <trkpt lat="46.50877" lon="-1.57261">
        <ele>52</ele>
        <time>2014-01-08T13:35:04Z</time>
      </trkpt>
      <trkpt lat="46.50879" lon="-1.57257">
        <ele>52</ele>
        <time>2014-01-08T13:35:07Z</time>
      </trkpt>
      <trkpt lat="46.50881" lon="-1.57252">
        <ele>52</ele>
        <time>2014-01-08T13:35:10Z</time>
      </trkpt>
      <trkpt lat="46.50883" lon="-1.57248">
        <ele>52</ele>
        <time>2014-01-08T13:35:13Z</time>
      </trkpt>
      <trkpt lat="46.50885" lon="-1.57243">
        <ele>52</ele>
        <time>2014-01-08T13:35:16Z</time>
      </trkpt>
      <trkpt lat="46.50887" lon="-1.57239">
        <ele>52</ele>
        <time>2014-01-08T13:35:19Z</time>
      </trkpt>
      <trkpt lat="46.50889" lon="-1.57235">
        <ele>52</ele>
        <time>2014-01-08T13:35:22Z</time>
      </trkpt>
      <trkpt lat="46.50891" lon="-1.5723">
        <ele>52</ele>
        <time>2014-01-08T13:35:25Z</time>
      </trkpt>
      <trkpt lat="46.50894" lon="-1.57226">
        <ele>52</ele>
        <time>2014-01-08T13:35:28Z</time>
      </trkpt>
      <trkpt lat="46.50896" lon="-1.57221">
        <ele>52</ele>
        <time>2014-01-08T13:35:32Z</time>
      </trkpt>
      <trkpt lat="46.50898" lon="-1.57215">
        <ele>52</ele>
        <time>2014-01-08T13:35:37Z</time>
      </trkpt>
      <trkpt lat="46.50901" lon="-1.57211">
        <ele>52</ele>
        <time>2014-01-08T13:35:41Z</time>
      </trkpt>
      <trkpt lat="46.50903" lon="-1.57205">
        <ele>52</ele>
        <time>2014-01-08T13:35:46Z</time>
      </trkpt>
      <trkpt lat="46.50904" lon="-1.57204">
        <ele>52</ele>
        <time>2014-01-08T13:35:47Z</time>
      </trkpt>
      <trkpt lat="46.50907" lon="-1.57196">
        <ele>52</ele>
        <time>2014-01-08T13:35:53Z</time>
      </trkpt>
      <trkpt lat="46.5091" lon="-1.57191">
        <ele>52</ele>
        <time>2014-01-08T13:35:56Z</time>
      </trkpt>
      <trkpt lat="46.50912" lon="-1.57186">
        <ele>53</ele>
        <time>2014-01-08T13:36:00Z</time>
      </trkpt>
      <trkpt lat="46.50914" lon="-1.57182">
        <ele>53</ele>
        <time>2014-01-08T13:36:04Z</time>
      </trkpt>
      <trkpt lat="46.50917" lon="-1.57178">
        <ele>53</ele>
        <time>2014-01-08T13:36:07Z</time>
      </trkpt>
      <trkpt lat="46.5092" lon="-1.57174">
        <ele>53</ele>
        <time>2014-01-08T13:36:10Z</time>
      </trkpt>
      <trkpt lat="46.50923" lon="-1.5717">
        <ele>53</ele>
        <time>2014-01-08T13:36:13Z</time>
      </trkpt>
      <trkpt lat="46.50925" lon="-1.57166">
        <ele>53</ele>
        <time>2014-01-08T13:36:16Z</time>
      </trkpt>
      <trkpt lat="46.50928" lon="-1.57161">
        <ele>53</ele>
        <time>2014-01-08T13:36:19Z</time>
      </trkpt>
      <trkpt lat="46.50931" lon="-1.57157">
        <ele>52</ele>
        <time>2014-01-08T13:36:22Z</time>
      </trkpt>
      <trkpt lat="46.50933" lon="-1.57152">
        <ele>52</ele>
        <time>2014-01-08T13:36:26Z</time>
      </trkpt>
      <trkpt lat="46.50935" lon="-1.57147">
        <ele>52</ele>
        <time>2014-01-08T13:36:29Z</time>
      </trkpt>
      <trkpt lat="46.50937" lon="-1.57142">
        <ele>52</ele>
        <time>2014-01-08T13:36:33Z</time>
      </trkpt>
      <trkpt lat="46.50939" lon="-1.57137">
        <ele>52</ele>
        <time>2014-01-08T13:36:38Z</time>
      </trkpt>
      <trkpt lat="46.50941" lon="-1.57132">
        <ele>52</ele>
        <time>2014-01-08T13:36:42Z</time>
      </trkpt>
      <trkpt lat="46.50942" lon="-1.57126">
        <ele>52</ele>
        <time>2014-01-08T13:36:47Z</time>
      </trkpt>
      <trkpt lat="46.50943" lon="-1.57125">
        <ele>52</ele>
        <time>2014-01-08T13:36:48Z</time>
      </trkpt>
      <trkpt lat="46.50946" lon="-1.57116">
        <ele>52</ele>
        <time>2014-01-08T13:36:56Z</time>
      </trkpt>
      <trkpt lat="46.50949" lon="-1.57111">
        <ele>52</ele>
        <time>2014-01-08T13:37:01Z</time>
      </trkpt>
      <trkpt lat="46.5095" lon="-1.57106">
        <ele>52</ele>
        <time>2014-01-08T13:37:05Z</time>
      </trkpt>
      <trkpt lat="46.50952" lon="-1.57101">
        <ele>52</ele>
        <time>2014-01-08T13:37:08Z</time>
      </trkpt>
      <trkpt lat="46.50954" lon="-1.57096">
        <ele>52</ele>
        <time>2014-01-08T13:37:11Z</time>
      </trkpt>
      <trkpt lat="46.50956" lon="-1.57091">
        <ele>52</ele>
        <time>2014-01-08T13:37:15Z</time>
      </trkpt>
      <trkpt lat="46.50958" lon="-1.57086">
        <ele>52</ele>
        <time>2014-01-08T13:37:18Z</time>
      </trkpt>
      <trkpt lat="46.50959" lon="-1.57082">
        <ele>52</ele>
        <time>2014-01-08T13:37:21Z</time>
      </trkpt>
      <trkpt lat="46.50962" lon="-1.57077">
        <ele>52</ele>
        <time>2014-01-08T13:37:24Z</time>
      </trkpt>
      <trkpt lat="46.50964" lon="-1.57072">
        <ele>52</ele>
        <time>2014-01-08T13:37:27Z</time>
      </trkpt>
      <trkpt lat="46.50967" lon="-1.57067">
        <ele>52</ele>
        <time>2014-01-08T13:37:31Z</time>
      </trkpt>
      <trkpt lat="46.50969" lon="-1.57065">
        <ele>52</ele>
        <time>2014-01-08T13:37:33Z</time>
      </trkpt>
      <trkpt lat="46.50972" lon="-1.57061">
        <ele>52</ele>
        <time>2014-01-08T13:37:35Z</time>
      </trkpt>
      <trkpt lat="46.50975" lon="-1.57057">
        <ele>52</ele>
        <time>2014-01-08T13:37:38Z</time>
      </trkpt>
      <trkpt lat="46.50977" lon="-1.57053">
        <ele>52</ele>
        <time>2014-01-08T13:37:41Z</time>
      </trkpt>
      <trkpt lat="46.50979" lon="-1.57049">
        <ele>52</ele>
        <time>2014-01-08T13:37:44Z</time>
      </trkpt>
      <trkpt lat="46.50982" lon="-1.57044">
        <ele>52</ele>
        <time>2014-01-08T13:37:47Z</time>
      </trkpt>
      <trkpt lat="46.50984" lon="-1.5704">
        <ele>52</ele>
        <time>2014-01-08T13:37:50Z</time>
      </trkpt>
      <trkpt lat="46.50984" lon="-1.57038">
        <ele>52</ele>
        <time>2014-01-08T13:37:51Z</time>
      </trkpt>
      <trkpt lat="46.50987" lon="-1.5703">
        <ele>52</ele>
        <time>2014-01-08T13:37:57Z</time>
      </trkpt>
      <trkpt lat="46.50989" lon="-1.57024">
        <ele>52</ele>
        <time>2014-01-08T13:38:01Z</time>
      </trkpt>
      <trkpt lat="46.50991" lon="-1.57019">
        <ele>52</ele>
        <time>2014-01-08T13:38:05Z</time>
      </trkpt>
      <trkpt lat="46.50993" lon="-1.57015">
        <ele>52</ele>
        <time>2014-01-08T13:38:09Z</time>
      </trkpt>
      <trkpt lat="46.50995" lon="-1.57011">
        <ele>52</ele>
        <time>2014-01-08T13:38:12Z</time>
      </trkpt>
      <trkpt lat="46.50997" lon="-1.57005">
        <ele>52</ele>
        <time>2014-01-08T13:38:16Z</time>
      </trkpt>
      <trkpt lat="46.50999" lon="-1.57">
        <ele>52</ele>
        <time>2014-01-08T13:38:20Z</time>
      </trkpt>
      <trkpt lat="46.51001" lon="-1.56994">
        <ele>52</ele>
        <time>2014-01-08T13:38:24Z</time>
      </trkpt>
      <trkpt lat="46.51003" lon="-1.56988">
        <ele>52</ele>
        <time>2014-01-08T13:38:28Z</time>
      </trkpt>
      <trkpt lat="46.51006" lon="-1.56983">
        <ele>52</ele>
        <time>2014-01-08T13:38:33Z</time>
      </trkpt>
      <trkpt lat="46.51008" lon="-1.5698">
        <ele>52</ele>
        <time>2014-01-08T13:38:36Z</time>
      </trkpt>
      <trkpt lat="46.51011" lon="-1.56975">
        <ele>52</ele>
        <time>2014-01-08T13:38:39Z</time>
      </trkpt>
      <trkpt lat="46.51013" lon="-1.56971">
        <ele>52</ele>
        <time>2014-01-08T13:38:42Z</time>
      </trkpt>
      <trkpt lat="46.51016" lon="-1.56967">
        <ele>52</ele>
        <time>2014-01-08T13:38:45Z</time>
      </trkpt>
      <trkpt lat="46.51018" lon="-1.56963">
        <ele>52</ele>
        <time>2014-01-08T13:38:47Z</time>
      </trkpt>
      <trkpt lat="46.5102" lon="-1.5696">
        <ele>52</ele>
        <time>2014-01-08T13:38:49Z</time>
      </trkpt>
      <trkpt lat="46.51023" lon="-1.56955">
        <ele>52</ele>
        <time>2014-01-08T13:38:52Z</time>
      </trkpt>
      <trkpt lat="46.51023" lon="-1.56954">
        <ele>52</ele>
        <time>2014-01-08T13:38:53Z</time>
      </trkpt>
      <trkpt lat="46.51028" lon="-1.56948">
        <ele>52</ele>
        <time>2014-01-08T13:38:58Z</time>
      </trkpt>
      <trkpt lat="46.51031" lon="-1.56944">
        <ele>52</ele>
        <time>2014-01-08T13:39:01Z</time>
      </trkpt>
      <trkpt lat="46.51034" lon="-1.56941">
        <ele>52</ele>
        <time>2014-01-08T13:39:04Z</time>
      </trkpt>
      <trkpt lat="46.51037" lon="-1.56938">
        <ele>52</ele>
        <time>2014-01-08T13:39:07Z</time>
      </trkpt>
      <trkpt lat="46.5104" lon="-1.56935">
        <ele>52</ele>
        <time>2014-01-08T13:39:10Z</time>
      </trkpt>
      <trkpt lat="46.51044" lon="-1.56931">
        <ele>52</ele>
        <time>2014-01-08T13:39:14Z</time>
      </trkpt>
      <trkpt lat="46.51047" lon="-1.56928">
        <ele>52</ele>
        <time>2014-01-08T13:39:17Z</time>
      </trkpt>
      <trkpt lat="46.5105" lon="-1.56925">
        <ele>53</ele>
        <time>2014-01-08T13:39:21Z</time>
      </trkpt>
      <trkpt lat="46.51053" lon="-1.56921">
        <ele>53</ele>
        <time>2014-01-08T13:39:25Z</time>
      </trkpt>
      <trkpt lat="46.51055" lon="-1.56917">
        <ele>53</ele>
        <time>2014-01-08T13:39:29Z</time>
      </trkpt>
      <trkpt lat="46.51059" lon="-1.56914">
        <ele>53</ele>
        <time>2014-01-08T13:39:32Z</time>
      </trkpt>
      <trkpt lat="46.51063" lon="-1.56912">
        <ele>53</ele>
        <time>2014-01-08T13:39:36Z</time>
      </trkpt>
      <trkpt lat="46.51066" lon="-1.5691">
        <ele>53</ele>
        <time>2014-01-08T13:39:40Z</time>
      </trkpt>
      <trkpt lat="46.5107" lon="-1.56908">
        <ele>53</ele>
        <time>2014-01-08T13:39:43Z</time>
      </trkpt>
      <trkpt lat="46.51074" lon="-1.56907">
        <ele>53</ele>
        <time>2014-01-08T13:39:46Z</time>
      </trkpt>
      <trkpt lat="46.51078" lon="-1.56905">
        <ele>53</ele>
        <time>2014-01-08T13:39:50Z</time>
      </trkpt>
      <trkpt lat="46.51081" lon="-1.56903">
        <ele>53</ele>
        <time>2014-01-08T13:39:54Z</time>
      </trkpt>
      <trkpt lat="46.51082" lon="-1.56903">
        <ele>53</ele>
        <time>2014-01-08T13:39:55Z</time>
      </trkpt>
      <trkpt lat="46.51089" lon="-1.56898">
        <ele>53</ele>
        <time>2014-01-08T13:40:04Z</time>
      </trkpt>
      <trkpt lat="46.51093" lon="-1.56896">
        <ele>53</ele>
        <time>2014-01-08T13:40:08Z</time>
      </trkpt>
      <trkpt lat="46.51097" lon="-1.56895">
        <ele>52</ele>
        <time>2014-01-08T13:40:12Z</time>
      </trkpt>
      <trkpt lat="46.51101" lon="-1.56893">
        <ele>52</ele>
        <time>2014-01-08T13:40:17Z</time>
      </trkpt>
      <trkpt lat="46.51104" lon="-1.56891">
        <ele>52</ele>
        <time>2014-01-08T13:40:20Z</time>
      </trkpt>
      <trkpt lat="46.51108" lon="-1.56887">
        <ele>52</ele>
        <time>2014-01-08T13:40:24Z</time>
      </trkpt>
      <trkpt lat="46.51111" lon="-1.56886">
        <ele>52</ele>
        <time>2014-01-08T13:40:27Z</time>
      </trkpt>
      <trkpt lat="46.51114" lon="-1.56884">
        <ele>52</ele>
        <time>2014-01-08T13:40:30Z</time>
      </trkpt>
      <trkpt lat="46.51118" lon="-1.56882">
        <ele>52</ele>
        <time>2014-01-08T13:40:33Z</time>
      </trkpt>
      <trkpt lat="46.51122" lon="-1.5688">
        <ele>52</ele>
        <time>2014-01-08T13:40:37Z</time>
      </trkpt>
      <trkpt lat="46.51126" lon="-1.56877">
        <ele>52</ele>
        <time>2014-01-08T13:40:41Z</time>
      </trkpt>
      <trkpt lat="46.5113" lon="-1.56875">
        <ele>52</ele>
        <time>2014-01-08T13:40:45Z</time>
      </trkpt>
      <trkpt lat="46.51133" lon="-1.56873">
        <ele>52</ele>
        <time>2014-01-08T13:40:48Z</time>
      </trkpt>
      <trkpt lat="46.51137" lon="-1.56871">
        <ele>52</ele>
        <time>2014-01-08T13:40:52Z</time>
      </trkpt>
      <trkpt lat="46.51141" lon="-1.56869">
        <ele>52</ele>
        <time>2014-01-08T13:40:56Z</time>
      </trkpt>
      <trkpt lat="46.51142" lon="-1.56868">
        <ele>52</ele>
        <time>2014-01-08T13:40:57Z</time>
      </trkpt>
      <trkpt lat="46.51148" lon="-1.56866">
        <ele>52</ele>
        <time>2014-01-08T13:41:04Z</time>
      </trkpt>
      <trkpt lat="46.51153" lon="-1.56865">
        <ele>52</ele>
        <time>2014-01-08T13:41:08Z</time>
      </trkpt>
      <trkpt lat="46.51157" lon="-1.56863">
        <ele>52</ele>
        <time>2014-01-08T13:41:12Z</time>
      </trkpt>
      <trkpt lat="46.51161" lon="-1.56861">
        <ele>52</ele>
        <time>2014-01-08T13:41:16Z</time>
      </trkpt>
      <trkpt lat="46.51165" lon="-1.56859">
        <ele>52</ele>
        <time>2014-01-08T13:41:19Z</time>
      </trkpt>
      <trkpt lat="46.51169" lon="-1.56857">
        <ele>52</ele>
        <time>2014-01-08T13:41:23Z</time>
      </trkpt>
      <trkpt lat="46.51173" lon="-1.56856">
        <ele>52</ele>
        <time>2014-01-08T13:41:27Z</time>
      </trkpt>
      <trkpt lat="46.51177" lon="-1.56854">
        <ele>52</ele>
        <time>2014-01-08T13:41:31Z</time>
      </trkpt>
      <trkpt lat="46.51181" lon="-1.56852">
        <ele>52</ele>
        <time>2014-01-08T13:41:35Z</time>
      </trkpt>
      <trkpt lat="46.51184" lon="-1.56849">
        <ele>52</ele>
        <time>2014-01-08T13:41:38Z</time>
      </trkpt>
      <trkpt lat="46.51188" lon="-1.56848">
        <ele>52</ele>
        <time>2014-01-08T13:41:42Z</time>
      </trkpt>
      <trkpt lat="46.51191" lon="-1.56846">
        <ele>52</ele>
        <time>2014-01-08T13:41:45Z</time>
      </trkpt>
      <trkpt lat="46.51195" lon="-1.56844">
        <ele>52</ele>
        <time>2014-01-08T13:41:49Z</time>
      </trkpt>
      <trkpt lat="46.51199" lon="-1.56842">
        <ele>52</ele>
        <time>2014-01-08T13:41:56Z</time>
      </trkpt>
      <trkpt lat="46.51203" lon="-1.5684">
        <ele>52</ele>
        <time>2014-01-08T13:42:06Z</time>
      </trkpt>
      <trkpt lat="46.51204" lon="-1.56839">
        <ele>52</ele>
        <time>2014-01-08T13:42:07Z</time>
      </trkpt>
      <trkpt lat="46.5121" lon="-1.56834">
        <ele>52</ele>
        <time>2014-01-08T13:42:19Z</time>
      </trkpt>
      <trkpt lat="46.51213" lon="-1.56829">
        <ele>53</ele>
        <time>2014-01-08T13:42:24Z</time>
      </trkpt>
      <trkpt lat="46.51215" lon="-1.56825">
        <ele>53</ele>
        <time>2014-01-08T13:42:29Z</time>
      </trkpt>
      <trkpt lat="46.51218" lon="-1.5682">
        <ele>53</ele>
        <time>2014-01-08T13:42:34Z</time>
      </trkpt>
      <trkpt lat="46.51221" lon="-1.56816">
        <ele>53</ele>
        <time>2014-01-08T13:42:39Z</time>
      </trkpt>
      <trkpt lat="46.51224" lon="-1.56812">
        <ele>53</ele>
        <time>2014-01-08T13:42:43Z</time>
      </trkpt>
      <trkpt lat="46.51227" lon="-1.56807">
        <ele>53</ele>
        <time>2014-01-08T13:42:47Z</time>
      </trkpt>
      <trkpt lat="46.51229" lon="-1.56804">
        <ele>53</ele>
        <time>2014-01-08T13:42:50Z</time>
      </trkpt>
      <trkpt lat="46.51232" lon="-1.56801">
        <ele>53</ele>
        <time>2014-01-08T13:42:53Z</time>
      </trkpt>
      <trkpt lat="46.51235" lon="-1.56798">
        <ele>53</ele>
        <time>2014-01-08T13:42:56Z</time>
      </trkpt>
      <trkpt lat="46.51238" lon="-1.56794">
        <ele>53</ele>
        <time>2014-01-08T13:42:59Z</time>
      </trkpt>
      <trkpt lat="46.51241" lon="-1.56791">
        <ele>53</ele>
        <time>2014-01-08T13:43:02Z</time>
      </trkpt>
      <trkpt lat="46.51244" lon="-1.56788">
        <ele>53</ele>
        <time>2014-01-08T13:43:04Z</time>
      </trkpt>
      <trkpt lat="46.51247" lon="-1.56784">
        <ele>53</ele>
        <time>2014-01-08T13:43:07Z</time>
      </trkpt>
      <trkpt lat="46.51247" lon="-1.56783">
        <ele>53</ele>
        <time>2014-01-08T13:43:08Z</time>
      </trkpt>
      <trkpt lat="46.51253" lon="-1.56778">
        <ele>53</ele>
        <time>2014-01-08T13:43:14Z</time>
      </trkpt>
      <trkpt lat="46.51256" lon="-1.56774">
        <ele>53</ele>
        <time>2014-01-08T13:43:17Z</time>
      </trkpt>
      <trkpt lat="46.5126" lon="-1.56771">
        <ele>53</ele>
        <time>2014-01-08T13:43:21Z</time>
      </trkpt>
      <trkpt lat="46.51264" lon="-1.56768">
        <ele>53</ele>
        <time>2014-01-08T13:43:25Z</time>
      </trkpt>
      <trkpt lat="46.51267" lon="-1.56765">
        <ele>53</ele>
        <time>2014-01-08T13:43:28Z</time>
      </trkpt>
      <trkpt lat="46.5127" lon="-1.56762">
        <ele>53</ele>
        <time>2014-01-08T13:43:31Z</time>
      </trkpt>
      <trkpt lat="46.51273" lon="-1.56759">
        <ele>53</ele>
        <time>2014-01-08T13:43:35Z</time>
      </trkpt>
      <trkpt lat="46.51276" lon="-1.56755">
        <ele>53</ele>
        <time>2014-01-08T13:43:39Z</time>
      </trkpt>
      <trkpt lat="46.51279" lon="-1.56752">
        <ele>53</ele>
        <time>2014-01-08T13:43:43Z</time>
      </trkpt>
      <trkpt lat="46.51282" lon="-1.56748">
        <ele>53</ele>
        <time>2014-01-08T13:43:47Z</time>
      </trkpt>
      <trkpt lat="46.51285" lon="-1.56744">
        <ele>53</ele>
        <time>2014-01-08T13:43:51Z</time>
      </trkpt>
      <trkpt lat="46.51288" lon="-1.56741">
        <ele>53</ele>
        <time>2014-01-08T13:43:55Z</time>
      </trkpt>
      <trkpt lat="46.51291" lon="-1.56738">
        <ele>53</ele>
        <time>2014-01-08T13:43:59Z</time>
      </trkpt>
      <trkpt lat="46.51293" lon="-1.56734">
        <ele>53</ele>
        <time>2014-01-08T13:44:02Z</time>
      </trkpt>
      <trkpt lat="46.51296" lon="-1.56731">
        <ele>54</ele>
        <time>2014-01-08T13:44:05Z</time>
      </trkpt>
      <trkpt lat="46.513" lon="-1.56727">
        <ele>54</ele>
        <time>2014-01-08T13:44:09Z</time>
      </trkpt>
      <trkpt lat="46.51301" lon="-1.56726">
        <ele>54</ele>
        <time>2014-01-08T13:44:10Z</time>
      </trkpt>
      <trkpt lat="46.51307" lon="-1.5672">
        <ele>54</ele>
        <time>2014-01-08T13:44:16Z</time>
      </trkpt>
      <trkpt lat="46.51309" lon="-1.56717">
        <ele>54</ele>
        <time>2014-01-08T13:44:19Z</time>
      </trkpt>
      <trkpt lat="46.51312" lon="-1.56713">
        <ele>53</ele>
        <time>2014-01-08T13:44:22Z</time>
      </trkpt>
      <trkpt lat="46.51315" lon="-1.56709">
        <ele>53</ele>
        <time>2014-01-08T13:44:26Z</time>
      </trkpt>
      <trkpt lat="46.51318" lon="-1.56706">
        <ele>53</ele>
        <time>2014-01-08T13:44:30Z</time>
      </trkpt>
      <trkpt lat="46.51321" lon="-1.56702">
        <ele>53</ele>
        <time>2014-01-08T13:44:34Z</time>
      </trkpt>
      <trkpt lat="46.51324" lon="-1.56698">
        <ele>53</ele>
        <time>2014-01-08T13:44:38Z</time>
      </trkpt>
      <trkpt lat="46.51328" lon="-1.56695">
        <ele>53</ele>
        <time>2014-01-08T13:44:42Z</time>
      </trkpt>
      <trkpt lat="46.5133" lon="-1.56692">
        <ele>53</ele>
        <time>2014-01-08T13:44:45Z</time>
      </trkpt>
      <trkpt lat="46.51334" lon="-1.56688">
        <ele>53</ele>
        <time>2014-01-08T13:44:49Z</time>
      </trkpt>
      <trkpt lat="46.51337" lon="-1.56685">
        <ele>53</ele>
        <time>2014-01-08T13:44:53Z</time>
      </trkpt>
      <trkpt lat="46.5134" lon="-1.56681">
        <ele>53</ele>
        <time>2014-01-08T13:44:57Z</time>
      </trkpt>
      <trkpt lat="46.51342" lon="-1.56679">
        <ele>53</ele>
        <time>2014-01-08T13:45:00Z</time>
      </trkpt>
      <trkpt lat="46.51345" lon="-1.56675">
        <ele>53</ele>
        <time>2014-01-08T13:45:03Z</time>
      </trkpt>
      <trkpt lat="46.51349" lon="-1.56672">
        <ele>53</ele>
        <time>2014-01-08T13:45:07Z</time>
      </trkpt>
      <trkpt lat="46.51352" lon="-1.56669">
        <ele>53</ele>
        <time>2014-01-08T13:45:11Z</time>
      </trkpt>
      <trkpt lat="46.51353" lon="-1.56668">
        <ele>53</ele>
        <time>2014-01-08T13:45:12Z</time>
      </trkpt>
      <trkpt lat="46.51358" lon="-1.56663">
        <ele>53</ele>
        <time>2014-01-08T13:45:17Z</time>
      </trkpt>
      <trkpt lat="46.51361" lon="-1.56659">
        <ele>52</ele>
        <time>2014-01-08T13:45:20Z</time>
      </trkpt>
      <trkpt lat="46.51364" lon="-1.56656">
        <ele>52</ele>
        <time>2014-01-08T13:45:24Z</time>
      </trkpt>
      <trkpt lat="46.51367" lon="-1.56653">
        <ele>52</ele>
        <time>2014-01-08T13:45:27Z</time>
      </trkpt>
      <trkpt lat="46.5137" lon="-1.5665">
        <ele>52</ele>
        <time>2014-01-08T13:45:30Z</time>
      </trkpt>
      <trkpt lat="46.51373" lon="-1.56646">
        <ele>52</ele>
        <time>2014-01-08T13:45:33Z</time>
      </trkpt>
      <trkpt lat="46.51376" lon="-1.56643">
        <ele>52</ele>
        <time>2014-01-08T13:45:36Z</time>
      </trkpt>
      <trkpt lat="46.5138" lon="-1.56639">
        <ele>52</ele>
        <time>2014-01-08T13:45:40Z</time>
      </trkpt>
      <trkpt lat="46.51382" lon="-1.56635">
        <ele>52</ele>
        <time>2014-01-08T13:45:43Z</time>
      </trkpt>
      <trkpt lat="46.51385" lon="-1.56631">
        <ele>52</ele>
        <time>2014-01-08T13:45:47Z</time>
      </trkpt>
      <trkpt lat="46.51388" lon="-1.56628">
        <ele>52</ele>
        <time>2014-01-08T13:45:50Z</time>
      </trkpt>
      <trkpt lat="46.51391" lon="-1.56625">
        <ele>52</ele>
        <time>2014-01-08T13:45:53Z</time>
      </trkpt>
      <trkpt lat="46.51394" lon="-1.56622">
        <ele>52</ele>
        <time>2014-01-08T13:45:56Z</time>
      </trkpt>
      <trkpt lat="46.51397" lon="-1.56618">
        <ele>52</ele>
        <time>2014-01-08T13:45:59Z</time>
      </trkpt>
      <trkpt lat="46.51401" lon="-1.56614">
        <ele>52</ele>
        <time>2014-01-08T13:46:03Z</time>
      </trkpt>
      <trkpt lat="46.51404" lon="-1.5661">
        <ele>52</ele>
        <time>2014-01-08T13:46:07Z</time>
      </trkpt>
      <trkpt lat="46.51407" lon="-1.56607">
        <ele>52</ele>
        <time>2014-01-08T13:46:10Z</time>
      </trkpt>
      <trkpt lat="46.51409" lon="-1.56603">
        <ele>52</ele>
        <time>2014-01-08T13:46:13Z</time>
      </trkpt>
      <trkpt lat="46.5141" lon="-1.56602">
        <ele>52</ele>
        <time>2014-01-08T13:46:14Z</time>
      </trkpt>
      <trkpt lat="46.51416" lon="-1.56597">
        <ele>52</ele>
        <time>2014-01-08T13:46:19Z</time>
      </trkpt>
      <trkpt lat="46.51419" lon="-1.56594">
        <ele>52</ele>
        <time>2014-01-08T13:46:22Z</time>
      </trkpt>
      <trkpt lat="46.51422" lon="-1.5659">
        <ele>52</ele>
        <time>2014-01-08T13:46:25Z</time>
      </trkpt>
      <trkpt lat="46.51425" lon="-1.56587">
        <ele>52</ele>
        <time>2014-01-08T13:46:28Z</time>
      </trkpt>
      <trkpt lat="46.51428" lon="-1.56584">
        <ele>52</ele>
        <time>2014-01-08T13:46:31Z</time>
      </trkpt>
      <trkpt lat="46.51432" lon="-1.56581">
        <ele>52</ele>
        <time>2014-01-08T13:46:34Z</time>
      </trkpt>
      <trkpt lat="46.51435" lon="-1.56578">
        <ele>52</ele>
        <time>2014-01-08T13:46:37Z</time>
      </trkpt>
      <trkpt lat="46.51437" lon="-1.56574">
        <ele>52</ele>
        <time>2014-01-08T13:46:40Z</time>
      </trkpt>
      <trkpt lat="46.5144" lon="-1.56571">
        <ele>52</ele>
        <time>2014-01-08T13:46:43Z</time>
      </trkpt>
      <trkpt lat="46.51443" lon="-1.56567">
        <ele>52</ele>
        <time>2014-01-08T13:46:46Z</time>
      </trkpt>
      <trkpt lat="46.51446" lon="-1.56564">
        <ele>52</ele>
        <time>2014-01-08T13:46:49Z</time>
      </trkpt>
      <trkpt lat="46.51449" lon="-1.56561">
        <ele>52</ele>
        <time>2014-01-08T13:46:52Z</time>
      </trkpt>
      <trkpt lat="46.51452" lon="-1.56557">
        <ele>52</ele>
        <time>2014-01-08T13:46:56Z</time>
      </trkpt>
      <trkpt lat="46.51455" lon="-1.56553">
        <ele>52</ele>
        <time>2014-01-08T13:47:00Z</time>
      </trkpt>
      <trkpt lat="46.51459" lon="-1.5655">
        <ele>52</ele>
        <time>2014-01-08T13:47:04Z</time>
      </trkpt>
      <trkpt lat="46.51462" lon="-1.56546">
        <ele>52</ele>
        <time>2014-01-08T13:47:08Z</time>
      </trkpt>
      <trkpt lat="46.51465" lon="-1.56542">
        <ele>52</ele>
        <time>2014-01-08T13:47:12Z</time>
      </trkpt>
      <trkpt lat="46.51469" lon="-1.56538">
        <ele>53</ele>
        <time>2014-01-08T13:47:17Z</time>
      </trkpt>
      <trkpt lat="46.51469" lon="-1.56538">
        <ele>53</ele>
        <time>2014-01-08T13:47:18Z</time>
      </trkpt>
      <trkpt lat="46.51475" lon="-1.56532">
        <ele>53</ele>
        <time>2014-01-08T13:47:24Z</time>
      </trkpt>
      <trkpt lat="46.51478" lon="-1.56529">
        <ele>53</ele>
        <time>2014-01-08T13:47:27Z</time>
      </trkpt>
      <trkpt lat="46.51481" lon="-1.56526">
        <ele>53</ele>
        <time>2014-01-08T13:47:31Z</time>
      </trkpt>
      <trkpt lat="46.51484" lon="-1.56522">
        <ele>53</ele>
        <time>2014-01-08T13:47:35Z</time>
      </trkpt>
      <trkpt lat="46.51487" lon="-1.56518">
        <ele>53</ele>
        <time>2014-01-08T13:47:39Z</time>
      </trkpt>
      <trkpt lat="46.5149" lon="-1.56514">
        <ele>53</ele>
        <time>2014-01-08T13:47:42Z</time>
      </trkpt>
      <trkpt lat="46.51493" lon="-1.56511">
        <ele>53</ele>
        <time>2014-01-08T13:47:45Z</time>
      </trkpt>
      <trkpt lat="46.51496" lon="-1.56508">
        <ele>53</ele>
        <time>2014-01-08T13:47:48Z</time>
      </trkpt>
      <trkpt lat="46.51499" lon="-1.56504">
        <ele>53</ele>
        <time>2014-01-08T13:47:51Z</time>
      </trkpt>
      <trkpt lat="46.51502" lon="-1.56501">
        <ele>53</ele>
        <time>2014-01-08T13:47:54Z</time>
      </trkpt>
      <trkpt lat="46.51505" lon="-1.56498">
        <ele>53</ele>
        <time>2014-01-08T13:47:57Z</time>
      </trkpt>
      <trkpt lat="46.51508" lon="-1.56495">
        <ele>53</ele>
        <time>2014-01-08T13:48:00Z</time>
      </trkpt>
      <trkpt lat="46.5151" lon="-1.56492">
        <ele>53</ele>
        <time>2014-01-08T13:48:03Z</time>
      </trkpt>
      <trkpt lat="46.51514" lon="-1.56488">
        <ele>53</ele>
        <time>2014-01-08T13:48:07Z</time>
      </trkpt>
      <trkpt lat="46.51517" lon="-1.56483">
        <ele>53</ele>
        <time>2014-01-08T13:48:11Z</time>
      </trkpt>
      <trkpt lat="46.5152" lon="-1.56479">
        <ele>53</ele>
        <time>2014-01-08T13:48:15Z</time>
      </trkpt>
      <trkpt lat="46.51523" lon="-1.56476">
        <ele>53</ele>
        <time>2014-01-08T13:48:20Z</time>
      </trkpt>
      <trkpt lat="46.51524" lon="-1.56475">
        <ele>53</ele>
        <time>2014-01-08T13:48:21Z</time>
      </trkpt>
      <trkpt lat="46.5153" lon="-1.56468">
        <ele>53</ele>
        <time>2014-01-08T13:48:28Z</time>
      </trkpt>
      <trkpt lat="46.51533" lon="-1.56464">
        <ele>53</ele>
        <time>2014-01-08T13:48:32Z</time>
      </trkpt>
      <trkpt lat="46.51537" lon="-1.56461">
        <ele>53</ele>
        <time>2014-01-08T13:48:36Z</time>
      </trkpt>
      <trkpt lat="46.51539" lon="-1.56457">
        <ele>53</ele>
        <time>2014-01-08T13:48:40Z</time>
      </trkpt>
      <trkpt lat="46.51542" lon="-1.56453">
        <ele>53</ele>
        <time>2014-01-08T13:48:44Z</time>
      </trkpt>
      <trkpt lat="46.51545" lon="-1.5645">
        <ele>53</ele>
        <time>2014-01-08T13:48:47Z</time>
      </trkpt>
      <trkpt lat="46.51548" lon="-1.56446">
        <ele>53</ele>
        <time>2014-01-08T13:48:52Z</time>
      </trkpt>
      <trkpt lat="46.51552" lon="-1.56443">
        <ele>53</ele>
        <time>2014-01-08T13:48:56Z</time>
      </trkpt>
      <trkpt lat="46.51555" lon="-1.5644">
        <ele>53</ele>
        <time>2014-01-08T13:49:00Z</time>
      </trkpt>
      <trkpt lat="46.51558" lon="-1.56437">
        <ele>53</ele>
        <time>2014-01-08T13:49:03Z</time>
      </trkpt>
      <trkpt lat="46.51561" lon="-1.56434">
        <ele>53</ele>
        <time>2014-01-08T13:49:06Z</time>
      </trkpt>
      <trkpt lat="46.51564" lon="-1.56431">
        <ele>54</ele>
        <time>2014-01-08T13:49:09Z</time>
      </trkpt>
      <trkpt lat="46.51568" lon="-1.56427">
        <ele>54</ele>
        <time>2014-01-08T13:49:13Z</time>
      </trkpt>
      <trkpt lat="46.51571" lon="-1.56425">
        <ele>54</ele>
        <time>2014-01-08T13:49:16Z</time>
      </trkpt>
      <trkpt lat="46.51575" lon="-1.56421">
        <ele>54</ele>
        <time>2014-01-08T13:49:20Z</time>
      </trkpt>
      <trkpt lat="46.51578" lon="-1.56418">
        <ele>54</ele>
        <time>2014-01-08T13:49:24Z</time>
      </trkpt>
      <trkpt lat="46.51579" lon="-1.56417">
        <ele>54</ele>
        <time>2014-01-08T13:49:25Z</time>
      </trkpt>
      <trkpt lat="46.51583" lon="-1.56411">
        <ele>54</ele>
        <time>2014-01-08T13:49:31Z</time>
      </trkpt>
      <trkpt lat="46.51587" lon="-1.56409">
        <ele>54</ele>
        <time>2014-01-08T13:49:34Z</time>
      </trkpt>
      <trkpt lat="46.5159" lon="-1.56406">
        <ele>54</ele>
        <time>2014-01-08T13:49:37Z</time>
      </trkpt>
      <trkpt lat="46.51593" lon="-1.56402">
        <ele>55</ele>
        <time>2014-01-08T13:49:41Z</time>
      </trkpt>
      <trkpt lat="46.51596" lon="-1.56399">
        <ele>55</ele>
        <time>2014-01-08T13:49:45Z</time>
      </trkpt>
      <trkpt lat="46.51599" lon="-1.56395">
        <ele>55</ele>
        <time>2014-01-08T13:49:49Z</time>
      </trkpt>
      <trkpt lat="46.51602" lon="-1.56392">
        <ele>55</ele>
        <time>2014-01-08T13:49:52Z</time>
      </trkpt>
      <trkpt lat="46.51605" lon="-1.56389">
        <ele>55</ele>
        <time>2014-01-08T13:49:55Z</time>
      </trkpt>
      <trkpt lat="46.51608" lon="-1.56384">
        <ele>55</ele>
        <time>2014-01-08T13:49:59Z</time>
      </trkpt>
      <trkpt lat="46.51611" lon="-1.5638">
        <ele>55</ele>
        <time>2014-01-08T13:50:03Z</time>
      </trkpt>
      <trkpt lat="46.51615" lon="-1.56378">
        <ele>55</ele>
        <time>2014-01-08T13:50:06Z</time>
      </trkpt>
      <trkpt lat="46.51618" lon="-1.56375">
        <ele>55</ele>
        <time>2014-01-08T13:50:09Z</time>
      </trkpt>
      <trkpt lat="46.51621" lon="-1.56373">
        <ele>55</ele>
        <time>2014-01-08T13:50:12Z</time>
      </trkpt>
      <trkpt lat="46.51624" lon="-1.5637">
        <ele>55</ele>
        <time>2014-01-08T13:50:16Z</time>
      </trkpt>
      <trkpt lat="46.51627" lon="-1.56366">
        <ele>55</ele>
        <time>2014-01-08T13:50:20Z</time>
      </trkpt>
      <trkpt lat="46.51631" lon="-1.56362">
        <ele>55</ele>
        <time>2014-01-08T13:50:24Z</time>
      </trkpt>
      <trkpt lat="46.51634" lon="-1.56359">
        <ele>55</ele>
        <time>2014-01-08T13:50:27Z</time>
      </trkpt>
      <trkpt lat="46.51635" lon="-1.56358">
        <ele>55</ele>
        <time>2014-01-08T13:50:28Z</time>
      </trkpt>
      <trkpt lat="46.51641" lon="-1.56351">
        <ele>55</ele>
        <time>2014-01-08T13:50:35Z</time>
      </trkpt>
      <trkpt lat="46.51644" lon="-1.56347">
        <ele>55</ele>
        <time>2014-01-08T13:50:39Z</time>
      </trkpt>
      <trkpt lat="46.51647" lon="-1.56343">
        <ele>55</ele>
        <time>2014-01-08T13:50:43Z</time>
      </trkpt>
      <trkpt lat="46.5165" lon="-1.5634">
        <ele>56</ele>
        <time>2014-01-08T13:50:47Z</time>
      </trkpt>
      <trkpt lat="46.51653" lon="-1.56337">
        <ele>56</ele>
        <time>2014-01-08T13:50:52Z</time>
      </trkpt>
      <trkpt lat="46.51657" lon="-1.56339">
        <ele>56</ele>
        <time>2014-01-08T13:51:01Z</time>
      </trkpt>
      <trkpt lat="46.51661" lon="-1.56337">
        <ele>56</ele>
        <time>2014-01-08T13:51:33Z</time>
      </trkpt>
      <trkpt lat="46.51662" lon="-1.56337">
        <ele>56</ele>
        <time>2014-01-08T13:51:34Z</time>
      </trkpt>
      <trkpt lat="46.51659" lon="-1.56331">
        <ele>56</ele>
        <time>2014-01-08T13:53:16Z</time>
      </trkpt>
      <trkpt lat="46.51659" lon="-1.56333">
        <ele>56</ele>
        <time>2014-01-08T13:54:14Z</time>
      </trkpt>
      <trkpt lat="46.51663" lon="-1.5633">
        <ele>56</ele>
        <time>2014-01-08T13:55:46Z</time>
      </trkpt>
      <trkpt lat="46.51663" lon="-1.5633">
        <ele>56</ele>
        <time>2014-01-08T13:55:47Z</time>
      </trkpt>
      <trkpt lat="46.51664" lon="-1.56334">
        <ele>56</ele>
        <time>2014-01-08T13:57:58Z</time>
      </trkpt>
      <trkpt lat="46.51664" lon="-1.56334">
        <ele>56</ele>
        <time>2014-01-08T13:57:59Z</time>
      </trkpt>
      <trkpt lat="46.51669" lon="-1.56344">
        <ele>55</ele>
        <time>2014-01-08T13:58:32Z</time>
      </trkpt>
      <trkpt lat="46.51671" lon="-1.5635">
        <ele>55</ele>
        <time>2014-01-08T13:58:37Z</time>
      </trkpt>
      <trkpt lat="46.51673" lon="-1.56355">
        <ele>55</ele>
        <time>2014-01-08T13:58:42Z</time>
      </trkpt>
      <trkpt lat="46.51674" lon="-1.5636">
        <ele>55</ele>
        <time>2014-01-08T13:58:47Z</time>
      </trkpt>
      <trkpt lat="46.51675" lon="-1.56365">
        <ele>55</ele>
        <time>2014-01-08T13:58:50Z</time>
      </trkpt>
      <trkpt lat="46.51676" lon="-1.56371">
        <ele>55</ele>
        <time>2014-01-08T13:58:53Z</time>
      </trkpt>
      <trkpt lat="46.51677" lon="-1.56377">
        <ele>54</ele>
        <time>2014-01-08T13:58:57Z</time>
      </trkpt>
      <trkpt lat="46.51679" lon="-1.56381">
        <ele>54</ele>
        <time>2014-01-08T13:59:00Z</time>
      </trkpt>
      <trkpt lat="46.51679" lon="-1.56383">
        <ele>54</ele>
        <time>2014-01-08T13:59:01Z</time>
      </trkpt>
      <trkpt lat="46.51681" lon="-1.56392">
        <ele>54</ele>
        <time>2014-01-08T13:59:08Z</time>
      </trkpt>
      <trkpt lat="46.51682" lon="-1.56397">
        <ele>54</ele>
        <time>2014-01-08T13:59:11Z</time>
      </trkpt>
      <trkpt lat="46.51682" lon="-1.56403">
        <ele>54</ele>
        <time>2014-01-08T13:59:14Z</time>
      </trkpt>
      <trkpt lat="46.51683" lon="-1.56408">
        <ele>54</ele>
        <time>2014-01-08T13:59:17Z</time>
      </trkpt>
      <trkpt lat="46.51684" lon="-1.56413">
        <ele>54</ele>
        <time>2014-01-08T13:59:20Z</time>
      </trkpt>
      <trkpt lat="46.51684" lon="-1.56419">
        <ele>53</ele>
        <time>2014-01-08T13:59:24Z</time>
      </trkpt>
      <trkpt lat="46.51685" lon="-1.56425">
        <ele>53</ele>
        <time>2014-01-08T13:59:28Z</time>
      </trkpt>
      <trkpt lat="46.51685" lon="-1.56431">
        <ele>53</ele>
        <time>2014-01-08T13:59:31Z</time>
      </trkpt>
      <trkpt lat="46.51686" lon="-1.56437">
        <ele>53</ele>
        <time>2014-01-08T13:59:35Z</time>
      </trkpt>
      <trkpt lat="46.51687" lon="-1.56443">
        <ele>53</ele>
        <time>2014-01-08T13:59:39Z</time>
      </trkpt>
      <trkpt lat="46.51687" lon="-1.56449">
        <ele>53</ele>
        <time>2014-01-08T13:59:43Z</time>
      </trkpt>
      <trkpt lat="46.51688" lon="-1.56454">
        <ele>53</ele>
        <time>2014-01-08T13:59:46Z</time>
      </trkpt>
      <trkpt lat="46.51689" lon="-1.56459">
        <ele>53</ele>
        <time>2014-01-08T13:59:49Z</time>
      </trkpt>
      <trkpt lat="46.5169" lon="-1.56465">
        <ele>53</ele>
        <time>2014-01-08T13:59:53Z</time>
      </trkpt>
      <trkpt lat="46.51691" lon="-1.56469">
        <ele>53</ele>
        <time>2014-01-08T13:59:56Z</time>
      </trkpt>
      <trkpt lat="46.51692" lon="-1.56475">
        <ele>53</ele>
        <time>2014-01-08T13:59:59Z</time>
      </trkpt>
      <trkpt lat="46.51692" lon="-1.5648">
        <ele>53</ele>
        <time>2014-01-08T14:00:02Z</time>
      </trkpt>
      <trkpt lat="46.51692" lon="-1.56482">
        <ele>53</ele>
        <time>2014-01-08T14:00:03Z</time>
      </trkpt>
      <trkpt lat="46.51693" lon="-1.56492">
        <ele>52</ele>
        <time>2014-01-08T14:00:10Z</time>
      </trkpt>
      <trkpt lat="46.51694" lon="-1.56497">
        <ele>52</ele>
        <time>2014-01-08T14:00:13Z</time>
      </trkpt>
      <trkpt lat="46.51695" lon="-1.56502">
        <ele>52</ele>
        <time>2014-01-08T14:00:16Z</time>
      </trkpt>
      <trkpt lat="46.51696" lon="-1.56507">
        <ele>52</ele>
        <time>2014-01-08T14:00:19Z</time>
      </trkpt>
      <trkpt lat="46.51696" lon="-1.56512">
        <ele>52</ele>
        <time>2014-01-08T14:00:22Z</time>
      </trkpt>
      <trkpt lat="46.51696" lon="-1.56517">
        <ele>52</ele>
        <time>2014-01-08T14:00:25Z</time>
      </trkpt>
      <trkpt lat="46.51697" lon="-1.56523">
        <ele>52</ele>
        <time>2014-01-08T14:00:28Z</time>
      </trkpt>
      <trkpt lat="46.51697" lon="-1.56528">
        <ele>52</ele>
        <time>2014-01-08T14:00:31Z</time>
      </trkpt>
      <trkpt lat="46.51698" lon="-1.56534">
        <ele>52</ele>
        <time>2014-01-08T14:00:34Z</time>
      </trkpt>
      <trkpt lat="46.51698" lon="-1.56539">
        <ele>52</ele>
        <time>2014-01-08T14:00:37Z</time>
      </trkpt>
      <trkpt lat="46.51699" lon="-1.56545">
        <ele>52</ele>
        <time>2014-01-08T14:00:40Z</time>
      </trkpt>
      <trkpt lat="46.51699" lon="-1.5655">
        <ele>52</ele>
        <time>2014-01-08T14:00:43Z</time>
      </trkpt>
      <trkpt lat="46.517" lon="-1.56555">
        <ele>52</ele>
        <time>2014-01-08T14:00:46Z</time>
      </trkpt>
      <trkpt lat="46.517" lon="-1.56561">
        <ele>52</ele>
        <time>2014-01-08T14:00:49Z</time>
      </trkpt>
      <trkpt lat="46.51699" lon="-1.56566">
        <ele>52</ele>
        <time>2014-01-08T14:00:51Z</time>
      </trkpt>
      <trkpt lat="46.51698" lon="-1.5657">
        <ele>52</ele>
        <time>2014-01-08T14:00:54Z</time>
      </trkpt>
      <trkpt lat="46.51698" lon="-1.56575">
        <ele>52</ele>
        <time>2014-01-08T14:00:57Z</time>
      </trkpt>
      <trkpt lat="46.51697" lon="-1.5658">
        <ele>52</ele>
        <time>2014-01-08T14:01:00Z</time>
      </trkpt>
      <trkpt lat="46.51696" lon="-1.56585">
        <ele>52</ele>
        <time>2014-01-08T14:01:03Z</time>
      </trkpt>
      <trkpt lat="46.51696" lon="-1.56587">
        <ele>52</ele>
        <time>2014-01-08T14:01:04Z</time>
      </trkpt>
      <trkpt lat="46.51695" lon="-1.56597">
        <ele>52</ele>
        <time>2014-01-08T14:01:12Z</time>
      </trkpt>
      <trkpt lat="46.51696" lon="-1.56603">
        <ele>51</ele>
        <time>2014-01-08T14:01:17Z</time>
      </trkpt>
      <trkpt lat="46.51697" lon="-1.56609">
        <ele>51</ele>
        <time>2014-01-08T14:01:21Z</time>
      </trkpt>
      <trkpt lat="46.51697" lon="-1.56615">
        <ele>51</ele>
        <time>2014-01-08T14:01:25Z</time>
      </trkpt>
      <trkpt lat="46.51698" lon="-1.5662">
        <ele>51</ele>
        <time>2014-01-08T14:01:28Z</time>
      </trkpt>
      <trkpt lat="46.51698" lon="-1.56626">
        <ele>51</ele>
        <time>2014-01-08T14:01:31Z</time>
      </trkpt>
      <trkpt lat="46.51698" lon="-1.56631">
        <ele>51</ele>
        <time>2014-01-08T14:01:35Z</time>
      </trkpt>
      <trkpt lat="46.51699" lon="-1.56637">
        <ele>51</ele>
        <time>2014-01-08T14:01:39Z</time>
      </trkpt>
      <trkpt lat="46.51701" lon="-1.56643">
        <ele>51</ele>
        <time>2014-01-08T14:01:43Z</time>
      </trkpt>
      <trkpt lat="46.51702" lon="-1.56648">
        <ele>51</ele>
        <time>2014-01-08T14:01:47Z</time>
      </trkpt>
      <trkpt lat="46.51704" lon="-1.56653">
        <ele>51</ele>
        <time>2014-01-08T14:01:50Z</time>
      </trkpt>
      <trkpt lat="46.51705" lon="-1.56658">
        <ele>51</ele>
        <time>2014-01-08T14:01:53Z</time>
      </trkpt>
      <trkpt lat="46.51706" lon="-1.56664">
        <ele>51</ele>
        <time>2014-01-08T14:01:57Z</time>
      </trkpt>
      <trkpt lat="46.51708" lon="-1.5667">
        <ele>51</ele>
        <time>2014-01-08T14:02:01Z</time>
      </trkpt>
      <trkpt lat="46.51709" lon="-1.56675">
        <ele>51</ele>
        <time>2014-01-08T14:02:04Z</time>
      </trkpt>
      <trkpt lat="46.51709" lon="-1.56676">
        <ele>51</ele>
        <time>2014-01-08T14:02:05Z</time>
      </trkpt>
      <trkpt lat="46.51712" lon="-1.56685">
        <ele>51</ele>
        <time>2014-01-08T14:02:11Z</time>
      </trkpt>
      <trkpt lat="46.51712" lon="-1.56691">
        <ele>51</ele>
        <time>2014-01-08T14:02:15Z</time>
      </trkpt>
      <trkpt lat="46.51712" lon="-1.56697">
        <ele>51</ele>
        <time>2014-01-08T14:02:21Z</time>
      </trkpt>
      <trkpt lat="46.5171" lon="-1.56703">
        <ele>51</ele>
        <time>2014-01-08T14:02:30Z</time>
      </trkpt>
      <trkpt lat="46.51711" lon="-1.56709">
        <ele>51</ele>
        <time>2014-01-08T14:02:38Z</time>
      </trkpt>
      <trkpt lat="46.51715" lon="-1.56709">
        <ele>51</ele>
        <time>2014-01-08T14:03:07Z</time>
      </trkpt>
      <trkpt lat="46.51715" lon="-1.56709">
        <ele>51</ele>
        <time>2014-01-08T14:03:08Z</time>
      </trkpt>
      <trkpt lat="46.5171" lon="-1.567">
        <ele>51</ele>
        <time>2014-01-08T14:03:47Z</time>
      </trkpt>
      <trkpt lat="46.51706" lon="-1.56697">
        <ele>51</ele>
        <time>2014-01-08T14:04:03Z</time>
      </trkpt>
      <trkpt lat="46.51702" lon="-1.56696">
        <ele>51</ele>
        <time>2014-01-08T14:04:09Z</time>
      </trkpt>
      <trkpt lat="46.51701" lon="-1.56696">
        <ele>51</ele>
        <time>2014-01-08T14:04:10Z</time>
      </trkpt>
      <trkpt lat="46.51694" lon="-1.56695">
        <ele>51</ele>
        <time>2014-01-08T14:04:19Z</time>
      </trkpt>
      <trkpt lat="46.51692" lon="-1.56701">
        <ele>51</ele>
        <time>2014-01-08T14:04:25Z</time>
      </trkpt>
      <trkpt lat="46.51689" lon="-1.56705">
        <ele>51</ele>
        <time>2014-01-08T14:04:31Z</time>
      </trkpt>
      <trkpt lat="46.51686" lon="-1.56707">
        <ele>51</ele>
        <time>2014-01-08T14:04:34Z</time>
      </trkpt>
      <trkpt lat="46.51683" lon="-1.56709">
        <ele>51</ele>
        <time>2014-01-08T14:04:37Z</time>
      </trkpt>
      <trkpt lat="46.51679" lon="-1.56711">
        <ele>51</ele>
        <time>2014-01-08T14:04:41Z</time>
      </trkpt>
      <trkpt lat="46.51675" lon="-1.56711">
        <ele>51</ele>
        <time>2014-01-08T14:04:45Z</time>
      </trkpt>
      <trkpt lat="46.51671" lon="-1.56711">
        <ele>51</ele>
        <time>2014-01-08T14:04:50Z</time>
      </trkpt>
      <trkpt lat="46.51666" lon="-1.56712">
        <ele>51</ele>
        <time>2014-01-08T14:04:54Z</time>
      </trkpt>
      <trkpt lat="46.51662" lon="-1.56714">
        <ele>51</ele>
        <time>2014-01-08T14:04:58Z</time>
      </trkpt>
      <trkpt lat="46.51658" lon="-1.56715">
        <ele>51</ele>
        <time>2014-01-08T14:05:02Z</time>
      </trkpt>
      <trkpt lat="46.51654" lon="-1.56717">
        <ele>51</ele>
        <time>2014-01-08T14:05:06Z</time>
      </trkpt>
      <trkpt lat="46.5165" lon="-1.5672">
        <ele>51</ele>
        <time>2014-01-08T14:05:10Z</time>
      </trkpt>
      <trkpt lat="46.51649" lon="-1.5672">
        <ele>51</ele>
        <time>2014-01-08T14:05:11Z</time>
      </trkpt>
      <trkpt lat="46.51642" lon="-1.56724">
        <ele>51</ele>
        <time>2014-01-08T14:05:17Z</time>
      </trkpt>
      <trkpt lat="46.51639" lon="-1.56725">
        <ele>51</ele>
        <time>2014-01-08T14:05:20Z</time>
      </trkpt>
      <trkpt lat="46.51635" lon="-1.56726">
        <ele>51</ele>
        <time>2014-01-08T14:05:23Z</time>
      </trkpt>
      <trkpt lat="46.51632" lon="-1.56726">
        <ele>51</ele>
        <time>2014-01-08T14:05:26Z</time>
      </trkpt>
      <trkpt lat="46.51628" lon="-1.56728">
        <ele>51</ele>
        <time>2014-01-08T14:05:29Z</time>
      </trkpt>
      <trkpt lat="46.51624" lon="-1.56729">
        <ele>51</ele>
        <time>2014-01-08T14:05:33Z</time>
      </trkpt>
      <trkpt lat="46.5162" lon="-1.5673">
        <ele>51</ele>
        <time>2014-01-08T14:05:37Z</time>
      </trkpt>
      <trkpt lat="46.51616" lon="-1.56732">
        <ele>51</ele>
        <time>2014-01-08T14:05:41Z</time>
      </trkpt>
      <trkpt lat="46.51612" lon="-1.56733">
        <ele>51</ele>
        <time>2014-01-08T14:05:45Z</time>
      </trkpt>
      <trkpt lat="46.51608" lon="-1.56734">
        <ele>51</ele>
        <time>2014-01-08T14:05:48Z</time>
      </trkpt>
      <trkpt lat="46.51605" lon="-1.56735">
        <ele>51</ele>
        <time>2014-01-08T14:05:51Z</time>
      </trkpt>
      <trkpt lat="46.51602" lon="-1.56736">
        <ele>51</ele>
        <time>2014-01-08T14:05:54Z</time>
      </trkpt>
      <trkpt lat="46.51598" lon="-1.56738">
        <ele>51</ele>
        <time>2014-01-08T14:05:57Z</time>
      </trkpt>
      <trkpt lat="46.51594" lon="-1.5674">
        <ele>51</ele>
        <time>2014-01-08T14:06:01Z</time>
      </trkpt>
      <trkpt lat="46.5159" lon="-1.56742">
        <ele>51</ele>
        <time>2014-01-08T14:06:05Z</time>
      </trkpt>
      <trkpt lat="46.51586" lon="-1.56743">
        <ele>51</ele>
        <time>2014-01-08T14:06:09Z</time>
      </trkpt>
      <trkpt lat="46.51582" lon="-1.56745">
        <ele>51</ele>
        <time>2014-01-08T14:06:14Z</time>
      </trkpt>
      <trkpt lat="46.51581" lon="-1.56745">
        <ele>51</ele>
        <time>2014-01-08T14:06:15Z</time>
      </trkpt>
      <trkpt lat="46.51575" lon="-1.5675">
        <ele>51</ele>
        <time>2014-01-08T14:06:22Z</time>
      </trkpt>
      <trkpt lat="46.51572" lon="-1.56755">
        <ele>51</ele>
        <time>2014-01-08T14:06:26Z</time>
      </trkpt>
      <trkpt lat="46.5157" lon="-1.5676">
        <ele>51</ele>
        <time>2014-01-08T14:06:30Z</time>
      </trkpt>
      <trkpt lat="46.51569" lon="-1.56766">
        <ele>51</ele>
        <time>2014-01-08T14:06:35Z</time>
      </trkpt>
      <trkpt lat="46.51569" lon="-1.56771">
        <ele>51</ele>
        <time>2014-01-08T14:06:39Z</time>
      </trkpt>
      <trkpt lat="46.51569" lon="-1.56777">
        <ele>51</ele>
        <time>2014-01-08T14:06:43Z</time>
      </trkpt>
      <trkpt lat="46.51569" lon="-1.56782">
        <ele>51</ele>
        <time>2014-01-08T14:06:46Z</time>
      </trkpt>
      <trkpt lat="46.51568" lon="-1.56788">
        <ele>51</ele>
        <time>2014-01-08T14:06:50Z</time>
      </trkpt>
      <trkpt lat="46.51568" lon="-1.56794">
        <ele>51</ele>
        <time>2014-01-08T14:06:55Z</time>
      </trkpt>
      <trkpt lat="46.51568" lon="-1.568">
        <ele>51</ele>
        <time>2014-01-08T14:06:59Z</time>
      </trkpt>
      <trkpt lat="46.51568" lon="-1.56805">
        <ele>51</ele>
        <time>2014-01-08T14:07:03Z</time>
      </trkpt>
      <trkpt lat="46.51568" lon="-1.56811">
        <ele>51</ele>
        <time>2014-01-08T14:07:07Z</time>
      </trkpt>
      <trkpt lat="46.51568" lon="-1.56817">
        <ele>51</ele>
        <time>2014-01-08T14:07:11Z</time>
      </trkpt>
      <trkpt lat="46.51567" lon="-1.56823">
        <ele>51</ele>
        <time>2014-01-08T14:07:15Z</time>
      </trkpt>
      <trkpt lat="46.51567" lon="-1.56824">
        <ele>51</ele>
        <time>2014-01-08T14:07:16Z</time>
      </trkpt>
      <trkpt lat="46.51566" lon="-1.56834">
        <ele>50</ele>
        <time>2014-01-08T14:07:23Z</time>
      </trkpt>
      <trkpt lat="46.51566" lon="-1.56839">
        <ele>50</ele>
        <time>2014-01-08T14:07:27Z</time>
      </trkpt>
      <trkpt lat="46.51565" lon="-1.56845">
        <ele>50</ele>
        <time>2014-01-08T14:07:31Z</time>
      </trkpt>
      <trkpt lat="46.51565" lon="-1.56851">
        <ele>50</ele>
        <time>2014-01-08T14:07:36Z</time>
      </trkpt>
      <trkpt lat="46.51564" lon="-1.56857">
        <ele>50</ele>
        <time>2014-01-08T14:07:40Z</time>
      </trkpt>
      <trkpt lat="46.51564" lon="-1.56864">
        <ele>50</ele>
        <time>2014-01-08T14:07:44Z</time>
      </trkpt>
      <trkpt lat="46.51565" lon="-1.56869">
        <ele>50</ele>
        <time>2014-01-08T14:07:47Z</time>
      </trkpt>
      <trkpt lat="46.51565" lon="-1.56874">
        <ele>50</ele>
        <time>2014-01-08T14:07:50Z</time>
      </trkpt>
      <trkpt lat="46.51564" lon="-1.5688">
        <ele>50</ele>
        <time>2014-01-08T14:07:53Z</time>
      </trkpt>
      <trkpt lat="46.51563" lon="-1.56886">
        <ele>50</ele>
        <time>2014-01-08T14:07:57Z</time>
      </trkpt>
      <trkpt lat="46.51563" lon="-1.56891">
        <ele>50</ele>
        <time>2014-01-08T14:08:01Z</time>
      </trkpt>
      <trkpt lat="46.51562" lon="-1.56898">
        <ele>50</ele>
        <time>2014-01-08T14:08:06Z</time>
      </trkpt>
      <trkpt lat="46.51561" lon="-1.56903">
        <ele>50</ele>
        <time>2014-01-08T14:08:10Z</time>
      </trkpt>
      <trkpt lat="46.51561" lon="-1.56909">
        <ele>50</ele>
        <time>2014-01-08T14:08:14Z</time>
      </trkpt>
      <trkpt lat="46.5156" lon="-1.56915">
        <ele>50</ele>
        <time>2014-01-08T14:08:19Z</time>
      </trkpt>
      <trkpt lat="46.5156" lon="-1.56916">
        <ele>50</ele>
        <time>2014-01-08T14:08:20Z</time>
      </trkpt>
      <trkpt lat="46.5156" lon="-1.56925">
        <ele>50</ele>
        <time>2014-01-08T14:08:26Z</time>
      </trkpt>
      <trkpt lat="46.5156" lon="-1.56931">
        <ele>50</ele>
        <time>2014-01-08T14:08:31Z</time>
      </trkpt>
      <trkpt lat="46.51561" lon="-1.56936">
        <ele>50</ele>
        <time>2014-01-08T14:08:36Z</time>
      </trkpt>
      <trkpt lat="46.51561" lon="-1.56942">
        <ele>50</ele>
        <time>2014-01-08T14:08:40Z</time>
      </trkpt>
      <trkpt lat="46.51561" lon="-1.56948">
        <ele>50</ele>
        <time>2014-01-08T14:08:44Z</time>
      </trkpt>
      <trkpt lat="46.51562" lon="-1.56954">
        <ele>50</ele>
        <time>2014-01-08T14:08:49Z</time>
      </trkpt>
      <trkpt lat="46.51562" lon="-1.5696">
        <ele>50</ele>
        <time>2014-01-08T14:08:53Z</time>
      </trkpt>
      <trkpt lat="46.51562" lon="-1.56966">
        <ele>50</ele>
        <time>2014-01-08T14:08:57Z</time>
      </trkpt>
      <trkpt lat="46.51562" lon="-1.56972">
        <ele>50</ele>
        <time>2014-01-08T14:09:00Z</time>
      </trkpt>
      <trkpt lat="46.51562" lon="-1.56977">
        <ele>50</ele>
        <time>2014-01-08T14:09:03Z</time>
      </trkpt>
      <trkpt lat="46.51561" lon="-1.56983">
        <ele>50</ele>
        <time>2014-01-08T14:09:07Z</time>
      </trkpt>
      <trkpt lat="46.51561" lon="-1.5699">
        <ele>50</ele>
        <time>2014-01-08T14:09:11Z</time>
      </trkpt>
      <trkpt lat="46.51561" lon="-1.56996">
        <ele>50</ele>
        <time>2014-01-08T14:09:15Z</time>
      </trkpt>
      <trkpt lat="46.51561" lon="-1.57002">
        <ele>50</ele>
        <time>2014-01-08T14:09:20Z</time>
      </trkpt>
      <trkpt lat="46.51561" lon="-1.57003">
        <ele>50</ele>
        <time>2014-01-08T14:09:21Z</time>
      </trkpt>
      <trkpt lat="46.51562" lon="-1.57013">
        <ele>50</ele>
        <time>2014-01-08T14:09:29Z</time>
      </trkpt>
      <trkpt lat="46.51563" lon="-1.57019">
        <ele>50</ele>
        <time>2014-01-08T14:09:33Z</time>
      </trkpt>
      <trkpt lat="46.51563" lon="-1.57026">
        <ele>50</ele>
        <time>2014-01-08T14:09:37Z</time>
      </trkpt>
      <trkpt lat="46.51563" lon="-1.57032">
        <ele>50</ele>
        <time>2014-01-08T14:09:40Z</time>
      </trkpt>
      <trkpt lat="46.51563" lon="-1.57038">
        <ele>50</ele>
        <time>2014-01-08T14:09:44Z</time>
      </trkpt>
      <trkpt lat="46.51563" lon="-1.57043">
        <ele>50</ele>
        <time>2014-01-08T14:09:48Z</time>
      </trkpt>
      <trkpt lat="46.51563" lon="-1.57049">
        <ele>50</ele>
        <time>2014-01-08T14:09:52Z</time>
      </trkpt>
      <trkpt lat="46.51564" lon="-1.57054">
        <ele>50</ele>
        <time>2014-01-08T14:09:56Z</time>
      </trkpt>
      <trkpt lat="46.51564" lon="-1.5706">
        <ele>50</ele>
        <time>2014-01-08T14:10:01Z</time>
      </trkpt>
      <trkpt lat="46.51564" lon="-1.57067">
        <ele>50</ele>
        <time>2014-01-08T14:10:06Z</time>
      </trkpt>
      <trkpt lat="46.51564" lon="-1.57072">
        <ele>50</ele>
        <time>2014-01-08T14:10:09Z</time>
      </trkpt>
      <trkpt lat="46.51564" lon="-1.57078">
        <ele>50</ele>
        <time>2014-01-08T14:10:14Z</time>
      </trkpt>
      <trkpt lat="46.51564" lon="-1.57084">
        <ele>50</ele>
        <time>2014-01-08T14:10:19Z</time>
      </trkpt>
      <trkpt lat="46.51563" lon="-1.57089">
        <ele>50</ele>
        <time>2014-01-08T14:10:23Z</time>
      </trkpt>
      <trkpt lat="46.51563" lon="-1.5709">
        <ele>50</ele>
        <time>2014-01-08T14:10:24Z</time>
      </trkpt>
      <trkpt lat="46.51559" lon="-1.57099">
        <ele>50</ele>
        <time>2014-01-08T14:10:29Z</time>
      </trkpt>
      <trkpt lat="46.51555" lon="-1.57102">
        <ele>50</ele>
        <time>2014-01-08T14:10:33Z</time>
      </trkpt>
      <trkpt lat="46.51552" lon="-1.57105">
        <ele>50</ele>
        <time>2014-01-08T14:10:37Z</time>
      </trkpt>
      <trkpt lat="46.51547" lon="-1.57107">
        <ele>50</ele>
        <time>2014-01-08T14:10:42Z</time>
      </trkpt>
      <trkpt lat="46.51543" lon="-1.57107">
        <ele>50</ele>
        <time>2014-01-08T14:10:47Z</time>
      </trkpt>
      <trkpt lat="46.51539" lon="-1.57109">
        <ele>50</ele>
        <time>2014-01-08T14:10:51Z</time>
      </trkpt>
      <trkpt lat="46.51535" lon="-1.57109">
        <ele>50</ele>
        <time>2014-01-08T14:10:55Z</time>
      </trkpt>
      <trkpt lat="46.51532" lon="-1.57109">
        <ele>50</ele>
        <time>2014-01-08T14:10:59Z</time>
      </trkpt>
      <trkpt lat="46.51528" lon="-1.57108">
        <ele>50</ele>
        <time>2014-01-08T14:11:03Z</time>
      </trkpt>
      <trkpt lat="46.51525" lon="-1.57108">
        <ele>50</ele>
        <time>2014-01-08T14:11:07Z</time>
      </trkpt>
      <trkpt lat="46.5152" lon="-1.57107">
        <ele>49</ele>
        <time>2014-01-08T14:11:11Z</time>
      </trkpt>
      <trkpt lat="46.51516" lon="-1.57106">
        <ele>49</ele>
        <time>2014-01-08T14:11:15Z</time>
      </trkpt>
      <trkpt lat="46.51512" lon="-1.57105">
        <ele>49</ele>
        <time>2014-01-08T14:11:19Z</time>
      </trkpt>
      <trkpt lat="46.51508" lon="-1.57104">
        <ele>49</ele>
        <time>2014-01-08T14:11:23Z</time>
      </trkpt>
      <trkpt lat="46.51505" lon="-1.57104">
        <ele>49</ele>
        <time>2014-01-08T14:11:26Z</time>
      </trkpt>
      <trkpt lat="46.51504" lon="-1.57104">
        <ele>49</ele>
        <time>2014-01-08T14:11:27Z</time>
      </trkpt>
      <trkpt lat="46.51497" lon="-1.57103">
        <ele>48</ele>
        <time>2014-01-08T14:11:34Z</time>
      </trkpt>
      <trkpt lat="46.51493" lon="-1.57102">
        <ele>48</ele>
        <time>2014-01-08T14:11:38Z</time>
      </trkpt>
      <trkpt lat="46.51489" lon="-1.57102">
        <ele>48</ele>
        <time>2014-01-08T14:11:42Z</time>
      </trkpt>
      <trkpt lat="46.51485" lon="-1.57101">
        <ele>48</ele>
        <time>2014-01-08T14:11:46Z</time>
      </trkpt>
      <trkpt lat="46.51481" lon="-1.57101">
        <ele>48</ele>
        <time>2014-01-08T14:11:50Z</time>
      </trkpt>
      <trkpt lat="46.51477" lon="-1.571">
        <ele>48</ele>
        <time>2014-01-08T14:11:53Z</time>
      </trkpt>
      <trkpt lat="46.51474" lon="-1.57099">
        <ele>48</ele>
        <time>2014-01-08T14:11:57Z</time>
      </trkpt>
      <trkpt lat="46.5147" lon="-1.57098">
        <ele>48</ele>
        <time>2014-01-08T14:12:01Z</time>
      </trkpt>
      <trkpt lat="46.51466" lon="-1.57097">
        <ele>48</ele>
        <time>2014-01-08T14:12:05Z</time>
      </trkpt>
      <trkpt lat="46.51462" lon="-1.57096">
        <ele>48</ele>
        <time>2014-01-08T14:12:09Z</time>
      </trkpt>
      <trkpt lat="46.51458" lon="-1.57095">
        <ele>48</ele>
        <time>2014-01-08T14:12:13Z</time>
      </trkpt>
      <trkpt lat="46.51455" lon="-1.57095">
        <ele>48</ele>
        <time>2014-01-08T14:12:17Z</time>
      </trkpt>
      <trkpt lat="46.51452" lon="-1.57094">
        <ele>48</ele>
        <time>2014-01-08T14:12:20Z</time>
      </trkpt>
      <trkpt lat="46.51448" lon="-1.57092">
        <ele>48</ele>
        <time>2014-01-08T14:12:23Z</time>
      </trkpt>
      <trkpt lat="46.51444" lon="-1.57091">
        <ele>48</ele>
        <time>2014-01-08T14:12:26Z</time>
      </trkpt>
      <trkpt lat="46.51441" lon="-1.5709">
        <ele>48</ele>
        <time>2014-01-08T14:12:29Z</time>
      </trkpt>
      <trkpt lat="46.51439" lon="-1.5709">
        <ele>48</ele>
        <time>2014-01-08T14:12:30Z</time>
      </trkpt>
      <trkpt lat="46.51433" lon="-1.57088">
        <ele>47</ele>
        <time>2014-01-08T14:12:35Z</time>
      </trkpt>
      <trkpt lat="46.5143" lon="-1.57087">
        <ele>47</ele>
        <time>2014-01-08T14:12:38Z</time>
      </trkpt>
      <trkpt lat="46.51426" lon="-1.57086">
        <ele>47</ele>
        <time>2014-01-08T14:12:42Z</time>
      </trkpt>
      <trkpt lat="46.51421" lon="-1.57085">
        <ele>47</ele>
        <time>2014-01-08T14:12:46Z</time>
      </trkpt>
      <trkpt lat="46.51417" lon="-1.57084">
        <ele>47</ele>
        <time>2014-01-08T14:12:50Z</time>
      </trkpt>
      <trkpt lat="46.51414" lon="-1.57083">
        <ele>47</ele>
        <time>2014-01-08T14:12:54Z</time>
      </trkpt>
      <trkpt lat="46.5141" lon="-1.57083">
        <ele>47</ele>
        <time>2014-01-08T14:12:58Z</time>
      </trkpt>
      <trkpt lat="46.51406" lon="-1.57085">
        <ele>47</ele>
        <time>2014-01-08T14:13:04Z</time>
      </trkpt>
      <trkpt lat="46.51403" lon="-1.57087">
        <ele>47</ele>
        <time>2014-01-08T14:13:08Z</time>
      </trkpt>
      <trkpt lat="46.51399" lon="-1.57089">
        <ele>47</ele>
        <time>2014-01-08T14:13:12Z</time>
      </trkpt>
      <trkpt lat="46.51395" lon="-1.5709">
        <ele>47</ele>
        <time>2014-01-08T14:13:15Z</time>
      </trkpt>
      <trkpt lat="46.51392" lon="-1.57091">
        <ele>47</ele>
        <time>2014-01-08T14:13:18Z</time>
      </trkpt>
      <trkpt lat="46.51388" lon="-1.57092">
        <ele>47</ele>
        <time>2014-01-08T14:13:22Z</time>
      </trkpt>
      <trkpt lat="46.51385" lon="-1.57093">
        <ele>47</ele>
        <time>2014-01-08T14:13:26Z</time>
      </trkpt>
      <trkpt lat="46.5138" lon="-1.57094">
        <ele>47</ele>
        <time>2014-01-08T14:13:31Z</time>
      </trkpt>
      <trkpt lat="46.5138" lon="-1.57094">
        <ele>47</ele>
        <time>2014-01-08T14:13:32Z</time>
      </trkpt>
      <trkpt lat="46.51372" lon="-1.57094">
        <ele>47</ele>
        <time>2014-01-08T14:13:40Z</time>
      </trkpt>
      <trkpt lat="46.51368" lon="-1.57095">
        <ele>47</ele>
        <time>2014-01-08T14:13:44Z</time>
      </trkpt>
      <trkpt lat="46.51364" lon="-1.57095">
        <ele>47</ele>
        <time>2014-01-08T14:13:48Z</time>
      </trkpt>
      <trkpt lat="46.5136" lon="-1.57094">
        <ele>47</ele>
        <time>2014-01-08T14:13:52Z</time>
      </trkpt>
      <trkpt lat="46.51357" lon="-1.5709">
        <ele>48</ele>
        <time>2014-01-08T14:14:05Z</time>
      </trkpt>
      <trkpt lat="46.51355" lon="-1.57094">
        <ele>48</ele>
        <time>2014-01-08T14:14:20Z</time>
      </trkpt>
      <trkpt lat="46.51355" lon="-1.571">
        <ele>47</ele>
        <time>2014-01-08T14:14:24Z</time>
      </trkpt>
      <trkpt lat="46.51355" lon="-1.57106">
        <ele>47</ele>
        <time>2014-01-08T14:14:30Z</time>
      </trkpt>
      <trkpt lat="46.51355" lon="-1.57112">
        <ele>47</ele>
        <time>2014-01-08T14:14:36Z</time>
      </trkpt>
      <trkpt lat="46.51356" lon="-1.57114">
        <ele>47</ele>
        <time>2014-01-08T14:14:37Z</time>
      </trkpt>
      <trkpt lat="46.51356" lon="-1.57125">
        <ele>47</ele>
        <time>2014-01-08T14:14:45Z</time>
      </trkpt>
      <trkpt lat="46.51356" lon="-1.5713">
        <ele>47</ele>
        <time>2014-01-08T14:14:48Z</time>
      </trkpt>
      <trkpt lat="46.51357" lon="-1.57136">
        <ele>47</ele>
        <time>2014-01-08T14:14:52Z</time>
      </trkpt>
      <trkpt lat="46.51357" lon="-1.57141">
        <ele>47</ele>
        <time>2014-01-08T14:14:56Z</time>
      </trkpt>
      <trkpt lat="46.51357" lon="-1.57147">
        <ele>47</ele>
        <time>2014-01-08T14:15:00Z</time>
      </trkpt>
      <trkpt lat="46.51357" lon="-1.57153">
        <ele>47</ele>
        <time>2014-01-08T14:15:05Z</time>
      </trkpt>
      <trkpt lat="46.51357" lon="-1.57159">
        <ele>47</ele>
        <time>2014-01-08T14:15:10Z</time>
      </trkpt>
      <trkpt lat="46.51357" lon="-1.57165">
        <ele>47</ele>
        <time>2014-01-08T14:15:15Z</time>
      </trkpt>
      <trkpt lat="46.51356" lon="-1.57171">
        <ele>47</ele>
        <time>2014-01-08T14:15:20Z</time>
      </trkpt>
      <trkpt lat="46.51354" lon="-1.57177">
        <ele>47</ele>
        <time>2014-01-08T14:15:27Z</time>
      </trkpt>
      <trkpt lat="46.51355" lon="-1.57183">
        <ele>47</ele>
        <time>2014-01-08T14:15:31Z</time>
      </trkpt>
      <trkpt lat="46.51356" lon="-1.57188">
        <ele>47</ele>
        <time>2014-01-08T14:15:36Z</time>
      </trkpt>
      <trkpt lat="46.51357" lon="-1.57194">
        <ele>47</ele>
        <time>2014-01-08T14:15:41Z</time>
      </trkpt>
      <trkpt lat="46.51357" lon="-1.57196">
        <ele>47</ele>
        <time>2014-01-08T14:15:42Z</time>
      </trkpt>
      <trkpt lat="46.51356" lon="-1.57207">
        <ele>47</ele>
        <time>2014-01-08T14:15:51Z</time>
      </trkpt>
      <trkpt lat="46.51355" lon="-1.57213">
        <ele>47</ele>
        <time>2014-01-08T14:15:55Z</time>
      </trkpt>
      <trkpt lat="46.51355" lon="-1.57219">
        <ele>47</ele>
        <time>2014-01-08T14:15:59Z</time>
      </trkpt>
      <trkpt lat="46.51354" lon="-1.57225">
        <ele>47</ele>
        <time>2014-01-08T14:16:03Z</time>
      </trkpt>
      <trkpt lat="46.51353" lon="-1.57232">
        <ele>47</ele>
        <time>2014-01-08T14:16:08Z</time>
      </trkpt>
      <trkpt lat="46.51352" lon="-1.57238">
        <ele>46</ele>
        <time>2014-01-08T14:16:12Z</time>
      </trkpt>
      <trkpt lat="46.51352" lon="-1.57244">
        <ele>46</ele>
        <time>2014-01-08T14:16:16Z</time>
      </trkpt>
      <trkpt lat="46.51351" lon="-1.5725">
        <ele>46</ele>
        <time>2014-01-08T14:16:20Z</time>
      </trkpt>
      <trkpt lat="46.51351" lon="-1.57255">
        <ele>46</ele>
        <time>2014-01-08T14:16:23Z</time>
      </trkpt>
      <trkpt lat="46.51351" lon="-1.57261">
        <ele>46</ele>
        <time>2014-01-08T14:16:26Z</time>
      </trkpt>
      <trkpt lat="46.5135" lon="-1.57267">
        <ele>46</ele>
        <time>2014-01-08T14:16:30Z</time>
      </trkpt>
      <trkpt lat="46.5135" lon="-1.57274">
        <ele>46</ele>
        <time>2014-01-08T14:16:34Z</time>
      </trkpt>
      <trkpt lat="46.5135" lon="-1.5728">
        <ele>46</ele>
        <time>2014-01-08T14:16:38Z</time>
      </trkpt>
      <trkpt lat="46.5135" lon="-1.57285">
        <ele>46</ele>
        <time>2014-01-08T14:16:42Z</time>
      </trkpt>
      <trkpt lat="46.51349" lon="-1.57287">
        <ele>46</ele>
        <time>2014-01-08T14:16:43Z</time>
      </trkpt>
      <trkpt lat="46.51348" lon="-1.57296">
        <ele>46</ele>
        <time>2014-01-08T14:16:49Z</time>
      </trkpt>
      <trkpt lat="46.51347" lon="-1.57303">
        <ele>46</ele>
        <time>2014-01-08T14:16:53Z</time>
      </trkpt>
      <trkpt lat="46.51346" lon="-1.57308">
        <ele>46</ele>
        <time>2014-01-08T14:16:56Z</time>
      </trkpt>
      <trkpt lat="46.51346" lon="-1.57314">
        <ele>46</ele>
        <time>2014-01-08T14:17:00Z</time>
      </trkpt>
      <trkpt lat="46.51346" lon="-1.5732">
        <ele>46</ele>
        <time>2014-01-08T14:17:04Z</time>
      </trkpt>
      <trkpt lat="46.51346" lon="-1.57326">
        <ele>46</ele>
        <time>2014-01-08T14:17:08Z</time>
      </trkpt>
      <trkpt lat="46.51346" lon="-1.57333">
        <ele>46</ele>
        <time>2014-01-08T14:17:12Z</time>
      </trkpt>
      <trkpt lat="46.51346" lon="-1.57338">
        <ele>46</ele>
        <time>2014-01-08T14:17:15Z</time>
      </trkpt>
      <trkpt lat="46.51346" lon="-1.57343">
        <ele>46</ele>
        <time>2014-01-08T14:17:18Z</time>
      </trkpt>
      <trkpt lat="46.51346" lon="-1.57348">
        <ele>46</ele>
        <time>2014-01-08T14:17:21Z</time>
      </trkpt>
      <trkpt lat="46.51345" lon="-1.57353">
        <ele>46</ele>
        <time>2014-01-08T14:17:24Z</time>
      </trkpt>
      <trkpt lat="46.51345" lon="-1.57359">
        <ele>46</ele>
        <time>2014-01-08T14:17:28Z</time>
      </trkpt>
      <trkpt lat="46.51345" lon="-1.57366">
        <ele>46</ele>
        <time>2014-01-08T14:17:32Z</time>
      </trkpt>
      <trkpt lat="46.51345" lon="-1.57372">
        <ele>45</ele>
        <time>2014-01-08T14:17:36Z</time>
      </trkpt>
      <trkpt lat="46.51344" lon="-1.57378">
        <ele>45</ele>
        <time>2014-01-08T14:17:40Z</time>
      </trkpt>
      <trkpt lat="46.51344" lon="-1.57384">
        <ele>45</ele>
        <time>2014-01-08T14:17:44Z</time>
      </trkpt>
      <trkpt lat="46.51344" lon="-1.57386">
        <ele>45</ele>
        <time>2014-01-08T14:17:45Z</time>
      </trkpt>
      <trkpt lat="46.51344" lon="-1.57395">
        <ele>46</ele>
        <time>2014-01-08T14:17:50Z</time>
      </trkpt>
      <trkpt lat="46.51343" lon="-1.57401">
        <ele>46</ele>
        <time>2014-01-08T14:17:53Z</time>
      </trkpt>
      <trkpt lat="46.51343" lon="-1.57406">
        <ele>46</ele>
        <time>2014-01-08T14:17:56Z</time>
      </trkpt>
      <trkpt lat="46.51342" lon="-1.57412">
        <ele>46</ele>
        <time>2014-01-08T14:17:59Z</time>
      </trkpt>
      <trkpt lat="46.51341" lon="-1.57418">
        <ele>46</ele>
        <time>2014-01-08T14:18:03Z</time>
      </trkpt>
      <trkpt lat="46.5134" lon="-1.57424">
        <ele>46</ele>
        <time>2014-01-08T14:18:07Z</time>
      </trkpt>
      <trkpt lat="46.5134" lon="-1.5743">
        <ele>45</ele>
        <time>2014-01-08T14:18:11Z</time>
      </trkpt>
      <trkpt lat="46.51339" lon="-1.57436">
        <ele>45</ele>
        <time>2014-01-08T14:18:15Z</time>
      </trkpt>
      <trkpt lat="46.51338" lon="-1.57442">
        <ele>45</ele>
        <time>2014-01-08T14:18:19Z</time>
      </trkpt>
      <trkpt lat="46.51337" lon="-1.57448">
        <ele>45</ele>
        <time>2014-01-08T14:18:23Z</time>
      </trkpt>
      <trkpt lat="46.51336" lon="-1.57453">
        <ele>45</ele>
        <time>2014-01-08T14:18:27Z</time>
      </trkpt>
      <trkpt lat="46.51334" lon="-1.57457">
        <ele>45</ele>
        <time>2014-01-08T14:18:30Z</time>
      </trkpt>
      <trkpt lat="46.51333" lon="-1.57462">
        <ele>46</ele>
        <time>2014-01-08T14:18:33Z</time>
      </trkpt>
      <trkpt lat="46.51331" lon="-1.57467">
        <ele>46</ele>
        <time>2014-01-08T14:18:36Z</time>
      </trkpt>
      <trkpt lat="46.5133" lon="-1.57472">
        <ele>46</ele>
        <time>2014-01-08T14:18:39Z</time>
      </trkpt>
      <trkpt lat="46.51328" lon="-1.57477">
        <ele>46</ele>
        <time>2014-01-08T14:18:42Z</time>
      </trkpt>
      <trkpt lat="46.51326" lon="-1.57481">
        <ele>46</ele>
        <time>2014-01-08T14:18:45Z</time>
      </trkpt>
      <trkpt lat="46.51325" lon="-1.57483">
        <ele>46</ele>
        <time>2014-01-08T14:18:46Z</time>
      </trkpt>
      <trkpt lat="46.51321" lon="-1.5749">
        <ele>46</ele>
        <time>2014-01-08T14:18:51Z</time>
      </trkpt>
      <trkpt lat="46.51319" lon="-1.57494">
        <ele>46</ele>
        <time>2014-01-08T14:18:54Z</time>
      </trkpt>
      <trkpt lat="46.51316" lon="-1.57498">
        <ele>46</ele>
        <time>2014-01-08T14:18:57Z</time>
      </trkpt>
      <trkpt lat="46.51313" lon="-1.57502">
        <ele>46</ele>
        <time>2014-01-08T14:19:01Z</time>
      </trkpt>
      <trkpt lat="46.51309" lon="-1.57506">
        <ele>46</ele>
        <time>2014-01-08T14:19:05Z</time>
      </trkpt>
      <trkpt lat="46.51306" lon="-1.57509">
        <ele>46</ele>
        <time>2014-01-08T14:19:09Z</time>
      </trkpt>
      <trkpt lat="46.51303" lon="-1.57512">
        <ele>46</ele>
        <time>2014-01-08T14:19:12Z</time>
      </trkpt>
      <trkpt lat="46.513" lon="-1.57515">
        <ele>46</ele>
        <time>2014-01-08T14:19:15Z</time>
      </trkpt>
      <trkpt lat="46.51298" lon="-1.57519">
        <ele>46</ele>
        <time>2014-01-08T14:19:18Z</time>
      </trkpt>
      <trkpt lat="46.51295" lon="-1.57522">
        <ele>46</ele>
        <time>2014-01-08T14:19:21Z</time>
      </trkpt>
      <trkpt lat="46.51292" lon="-1.57526">
        <ele>47</ele>
        <time>2014-01-08T14:19:25Z</time>
      </trkpt>
      <trkpt lat="46.51289" lon="-1.5753">
        <ele>47</ele>
        <time>2014-01-08T14:19:28Z</time>
      </trkpt>
      <trkpt lat="46.51286" lon="-1.57534">
        <ele>47</ele>
        <time>2014-01-08T14:19:32Z</time>
      </trkpt>
      <trkpt lat="46.51283" lon="-1.57538">
        <ele>47</ele>
        <time>2014-01-08T14:19:36Z</time>
      </trkpt>
      <trkpt lat="46.5128" lon="-1.57543">
        <ele>47</ele>
        <time>2014-01-08T14:19:40Z</time>
      </trkpt>
      <trkpt lat="46.51278" lon="-1.57548">
        <ele>47</ele>
        <time>2014-01-08T14:19:44Z</time>
      </trkpt>
      <trkpt lat="46.51275" lon="-1.57552">
        <ele>47</ele>
        <time>2014-01-08T14:19:48Z</time>
      </trkpt>
      <trkpt lat="46.51275" lon="-1.57553">
        <ele>47</ele>
        <time>2014-01-08T14:19:49Z</time>
      </trkpt>
      <trkpt lat="46.51271" lon="-1.57562">
        <ele>47</ele>
        <time>2014-01-08T14:19:55Z</time>
      </trkpt>
      <trkpt lat="46.51269" lon="-1.57567">
        <ele>47</ele>
        <time>2014-01-08T14:19:59Z</time>
      </trkpt>
      <trkpt lat="46.51267" lon="-1.57572">
        <ele>47</ele>
        <time>2014-01-08T14:20:03Z</time>
      </trkpt>
      <trkpt lat="46.51264" lon="-1.57577">
        <ele>47</ele>
        <time>2014-01-08T14:20:07Z</time>
      </trkpt>
      <trkpt lat="46.51262" lon="-1.57581">
        <ele>47</ele>
        <time>2014-01-08T14:20:11Z</time>
      </trkpt>
      <trkpt lat="46.5126" lon="-1.57585">
        <ele>47</ele>
        <time>2014-01-08T14:20:15Z</time>
      </trkpt>
      <trkpt lat="46.51257" lon="-1.5759">
        <ele>47</ele>
        <time>2014-01-08T14:20:19Z</time>
      </trkpt>
      <trkpt lat="46.51255" lon="-1.57594">
        <ele>47</ele>
        <time>2014-01-08T14:20:23Z</time>
      </trkpt>
      <trkpt lat="46.51253" lon="-1.576">
        <ele>47</ele>
        <time>2014-01-08T14:20:27Z</time>
      </trkpt>
      <trkpt lat="46.5125" lon="-1.57605">
        <ele>47</ele>
        <time>2014-01-08T14:20:31Z</time>
      </trkpt>
      <trkpt lat="46.51247" lon="-1.57609">
        <ele>48</ele>
        <time>2014-01-08T14:20:35Z</time>
      </trkpt>
      <trkpt lat="46.51245" lon="-1.57613">
        <ele>48</ele>
        <time>2014-01-08T14:20:38Z</time>
      </trkpt>
      <trkpt lat="46.51242" lon="-1.57618">
        <ele>48</ele>
        <time>2014-01-08T14:20:42Z</time>
      </trkpt>
      <trkpt lat="46.5124" lon="-1.57623">
        <ele>48</ele>
        <time>2014-01-08T14:20:46Z</time>
      </trkpt>
      <trkpt lat="46.51237" lon="-1.57628">
        <ele>48</ele>
        <time>2014-01-08T14:20:50Z</time>
      </trkpt>
      <trkpt lat="46.51237" lon="-1.5763">
        <ele>48</ele>
        <time>2014-01-08T14:20:51Z</time>
      </trkpt>
      <trkpt lat="46.51233" lon="-1.57636">
        <ele>48</ele>
        <time>2014-01-08T14:20:56Z</time>
      </trkpt>
      <trkpt lat="46.51231" lon="-1.57642">
        <ele>48</ele>
        <time>2014-01-08T14:21:00Z</time>
      </trkpt>
      <trkpt lat="46.5123" lon="-1.57646">
        <ele>48</ele>
        <time>2014-01-08T14:21:03Z</time>
      </trkpt>
      <trkpt lat="46.51229" lon="-1.57652">
        <ele>48</ele>
        <time>2014-01-08T14:21:08Z</time>
      </trkpt>
      <trkpt lat="46.51229" lon="-1.57658">
        <ele>48</ele>
        <time>2014-01-08T14:21:12Z</time>
      </trkpt>
      <trkpt lat="46.51229" lon="-1.57663">
        <ele>48</ele>
        <time>2014-01-08T14:21:16Z</time>
      </trkpt>
      <trkpt lat="46.51229" lon="-1.57669">
        <ele>48</ele>
        <time>2014-01-08T14:21:20Z</time>
      </trkpt>
      <trkpt lat="46.51229" lon="-1.57674">
        <ele>48</ele>
        <time>2014-01-08T14:21:23Z</time>
      </trkpt>
      <trkpt lat="46.51229" lon="-1.57679">
        <ele>48</ele>
        <time>2014-01-08T14:21:27Z</time>
      </trkpt>
      <trkpt lat="46.51227" lon="-1.57685">
        <ele>48</ele>
        <time>2014-01-08T14:21:33Z</time>
      </trkpt>
      <trkpt lat="46.51226" lon="-1.57691">
        <ele>48</ele>
        <time>2014-01-08T14:21:37Z</time>
      </trkpt>
      <trkpt lat="46.51225" lon="-1.57696">
        <ele>48</ele>
        <time>2014-01-08T14:21:45Z</time>
      </trkpt>
      <trkpt lat="46.51223" lon="-1.57691">
        <ele>48</ele>
        <time>2014-01-08T14:22:27Z</time>
      </trkpt>
      <trkpt lat="46.51223" lon="-1.5769">
        <ele>48</ele>
        <time>2014-01-08T14:22:28Z</time>
      </trkpt>
      <trkpt lat="46.51229" lon="-1.57687">
        <ele>48</ele>
        <time>2014-01-08T14:23:15Z</time>
      </trkpt>
      <trkpt lat="46.51234" lon="-1.57687">
        <ele>48</ele>
        <time>2014-01-08T14:23:39Z</time>
      </trkpt>
      <trkpt lat="46.51234" lon="-1.57686">
        <ele>48</ele>
        <time>2014-01-08T14:23:40Z</time>
      </trkpt>
      <trkpt lat="46.51226" lon="-1.5769">
        <ele>48</ele>
        <time>2014-01-08T14:24:27Z</time>
      </trkpt>
      <trkpt lat="46.51223" lon="-1.57692">
        <ele>48</ele>
        <time>2014-01-08T14:24:31Z</time>
      </trkpt>
      <trkpt lat="46.51219" lon="-1.57694">
        <ele>48</ele>
        <time>2014-01-08T14:24:35Z</time>
      </trkpt>
      <trkpt lat="46.51215" lon="-1.57697">
        <ele>48</ele>
        <time>2014-01-08T14:24:39Z</time>
      </trkpt>
      <trkpt lat="46.51211" lon="-1.57699">
        <ele>48</ele>
        <time>2014-01-08T14:24:43Z</time>
      </trkpt>
      <trkpt lat="46.51211" lon="-1.577">
        <ele>48</ele>
        <time>2014-01-08T14:24:44Z</time>
      </trkpt>
      <trkpt lat="46.51205" lon="-1.57706">
        <ele>48</ele>
        <time>2014-01-08T14:24:50Z</time>
      </trkpt>
      <trkpt lat="46.51201" lon="-1.57708">
        <ele>48</ele>
        <time>2014-01-08T14:24:54Z</time>
      </trkpt>
      <trkpt lat="46.51198" lon="-1.57711">
        <ele>48</ele>
        <time>2014-01-08T14:24:57Z</time>
      </trkpt>
      <trkpt lat="46.51195" lon="-1.57714">
        <ele>48</ele>
        <time>2014-01-08T14:25:00Z</time>
      </trkpt>
      <trkpt lat="46.51192" lon="-1.57717">
        <ele>48</ele>
        <time>2014-01-08T14:25:04Z</time>
      </trkpt>
      <trkpt lat="46.51188" lon="-1.57719">
        <ele>48</ele>
        <time>2014-01-08T14:25:07Z</time>
      </trkpt>
      <trkpt lat="46.51184" lon="-1.57722">
        <ele>48</ele>
        <time>2014-01-08T14:25:11Z</time>
      </trkpt>
      <trkpt lat="46.51181" lon="-1.57724">
        <ele>48</ele>
        <time>2014-01-08T14:25:14Z</time>
      </trkpt>
      <trkpt lat="46.51177" lon="-1.57726">
        <ele>48</ele>
        <time>2014-01-08T14:25:17Z</time>
      </trkpt>
      <trkpt lat="46.51174" lon="-1.57729">
        <ele>48</ele>
        <time>2014-01-08T14:25:21Z</time>
      </trkpt>
      <trkpt lat="46.5117" lon="-1.57729">
        <ele>48</ele>
        <time>2014-01-08T14:25:26Z</time>
      </trkpt>
      <trkpt lat="46.51166" lon="-1.57728">
        <ele>49</ele>
        <time>2014-01-08T14:25:31Z</time>
      </trkpt>
      <trkpt lat="46.51162" lon="-1.57726">
        <ele>49</ele>
        <time>2014-01-08T14:25:35Z</time>
      </trkpt>
      <trkpt lat="46.51159" lon="-1.57725">
        <ele>49</ele>
        <time>2014-01-08T14:25:39Z</time>
      </trkpt>
      <trkpt lat="46.51155" lon="-1.57723">
        <ele>49</ele>
        <time>2014-01-08T14:25:43Z</time>
      </trkpt>
      <trkpt lat="46.51151" lon="-1.57721">
        <ele>49</ele>
        <time>2014-01-08T14:25:47Z</time>
      </trkpt>
      <trkpt lat="46.5115" lon="-1.5772">
        <ele>49</ele>
        <time>2014-01-08T14:25:48Z</time>
      </trkpt>
      <trkpt lat="46.51144" lon="-1.57716">
        <ele>49</ele>
        <time>2014-01-08T14:25:56Z</time>
      </trkpt>
      <trkpt lat="46.5114" lon="-1.57714">
        <ele>49</ele>
        <time>2014-01-08T14:26:01Z</time>
      </trkpt>
      <trkpt lat="46.51137" lon="-1.57711">
        <ele>49</ele>
        <time>2014-01-08T14:26:07Z</time>
      </trkpt>
      <trkpt lat="46.51133" lon="-1.57708">
        <ele>49</ele>
        <time>2014-01-08T14:26:13Z</time>
      </trkpt>
      <trkpt lat="46.5113" lon="-1.57705">
        <ele>49</ele>
        <time>2014-01-08T14:26:18Z</time>
      </trkpt>
      <trkpt lat="46.51126" lon="-1.57704">
        <ele>49</ele>
        <time>2014-01-08T14:26:23Z</time>
      </trkpt>
      <trkpt lat="46.51122" lon="-1.57702">
        <ele>49</ele>
        <time>2014-01-08T14:26:27Z</time>
      </trkpt>
      <trkpt lat="46.51118" lon="-1.57699">
        <ele>49</ele>
        <time>2014-01-08T14:26:31Z</time>
      </trkpt>
      <trkpt lat="46.51115" lon="-1.57696">
        <ele>49</ele>
        <time>2014-01-08T14:26:35Z</time>
      </trkpt>
      <trkpt lat="46.51112" lon="-1.57693">
        <ele>49</ele>
        <time>2014-01-08T14:26:39Z</time>
      </trkpt>
      <trkpt lat="46.51108" lon="-1.57689">
        <ele>49</ele>
        <time>2014-01-08T14:26:43Z</time>
      </trkpt>
      <trkpt lat="46.51105" lon="-1.57686">
        <ele>49</ele>
        <time>2014-01-08T14:26:47Z</time>
      </trkpt>
      <trkpt lat="46.51102" lon="-1.57685">
        <ele>49</ele>
        <time>2014-01-08T14:26:51Z</time>
      </trkpt>
      <trkpt lat="46.51101" lon="-1.57684">
        <ele>49</ele>
        <time>2014-01-08T14:26:52Z</time>
      </trkpt>
      <trkpt lat="46.51096" lon="-1.57679">
        <ele>49</ele>
        <time>2014-01-08T14:26:57Z</time>
      </trkpt>
      <trkpt lat="46.51092" lon="-1.57676">
        <ele>49</ele>
        <time>2014-01-08T14:27:01Z</time>
      </trkpt>
      <trkpt lat="46.51089" lon="-1.57673">
        <ele>50</ele>
        <time>2014-01-08T14:27:06Z</time>
      </trkpt>
      <trkpt lat="46.51085" lon="-1.5767">
        <ele>50</ele>
        <time>2014-01-08T14:27:10Z</time>
      </trkpt>
      <trkpt lat="46.51082" lon="-1.57667">
        <ele>50</ele>
        <time>2014-01-08T14:27:14Z</time>
      </trkpt>
      <trkpt lat="46.51078" lon="-1.57664">
        <ele>50</ele>
        <time>2014-01-08T14:27:18Z</time>
      </trkpt>
      <trkpt lat="46.51075" lon="-1.57661">
        <ele>50</ele>
        <time>2014-01-08T14:27:23Z</time>
      </trkpt>
      <trkpt lat="46.51072" lon="-1.57658">
        <ele>50</ele>
        <time>2014-01-08T14:27:28Z</time>
      </trkpt>
      <trkpt lat="46.51068" lon="-1.57655">
        <ele>50</ele>
        <time>2014-01-08T14:27:33Z</time>
      </trkpt>
      <trkpt lat="46.51064" lon="-1.57652">
        <ele>50</ele>
        <time>2014-01-08T14:27:38Z</time>
      </trkpt>
      <trkpt lat="46.51061" lon="-1.5765">
        <ele>50</ele>
        <time>2014-01-08T14:27:42Z</time>
      </trkpt>
      <trkpt lat="46.51058" lon="-1.57647">
        <ele>50</ele>
        <time>2014-01-08T14:27:46Z</time>
      </trkpt>
      <trkpt lat="46.51054" lon="-1.57644">
        <ele>50</ele>
        <time>2014-01-08T14:27:50Z</time>
      </trkpt>
      <trkpt lat="46.5105" lon="-1.5764">
        <ele>50</ele>
        <time>2014-01-08T14:27:54Z</time>
      </trkpt>
      <trkpt lat="46.51049" lon="-1.5764">
        <ele>50</ele>
        <time>2014-01-08T14:27:55Z</time>
      </trkpt>
      <trkpt lat="46.51044" lon="-1.57634">
        <ele>50</ele>
        <time>2014-01-08T14:28:01Z</time>
      </trkpt>
      <trkpt lat="46.51041" lon="-1.57631">
        <ele>50</ele>
        <time>2014-01-08T14:28:05Z</time>
      </trkpt>
      <trkpt lat="46.51038" lon="-1.57628">
        <ele>51</ele>
        <time>2014-01-08T14:28:08Z</time>
      </trkpt>
      <trkpt lat="46.51034" lon="-1.57625">
        <ele>51</ele>
        <time>2014-01-08T14:28:12Z</time>
      </trkpt>
      <trkpt lat="46.5103" lon="-1.57623">
        <ele>51</ele>
        <time>2014-01-08T14:28:16Z</time>
      </trkpt>
      <trkpt lat="46.51026" lon="-1.57622">
        <ele>51</ele>
        <time>2014-01-08T14:28:20Z</time>
      </trkpt>
      <trkpt lat="46.51022" lon="-1.57619">
        <ele>51</ele>
        <time>2014-01-08T14:28:24Z</time>
      </trkpt>
      <trkpt lat="46.51019" lon="-1.57616">
        <ele>51</ele>
        <time>2014-01-08T14:28:28Z</time>
      </trkpt>
      <trkpt lat="46.51016" lon="-1.57614">
        <ele>51</ele>
        <time>2014-01-08T14:28:32Z</time>
      </trkpt>
      <trkpt lat="46.51012" lon="-1.57613">
        <ele>51</ele>
        <time>2014-01-08T14:28:36Z</time>
      </trkpt>
      <trkpt lat="46.51008" lon="-1.57612">
        <ele>51</ele>
        <time>2014-01-08T14:28:41Z</time>
      </trkpt>
      <trkpt lat="46.51004" lon="-1.57612">
        <ele>51</ele>
        <time>2014-01-08T14:28:46Z</time>
      </trkpt>
      <trkpt lat="46.51" lon="-1.57613">
        <ele>51</ele>
        <time>2014-01-08T14:28:50Z</time>
      </trkpt>
      <trkpt lat="46.50997" lon="-1.57614">
        <ele>51</ele>
        <time>2014-01-08T14:28:54Z</time>
      </trkpt>
      <trkpt lat="46.50993" lon="-1.57616">
        <ele>51</ele>
        <time>2014-01-08T14:28:58Z</time>
      </trkpt>
      <trkpt lat="46.50993" lon="-1.57617">
        <ele>51</ele>
        <time>2014-01-08T14:28:59Z</time>
      </trkpt>
      <trkpt lat="46.50987" lon="-1.57624">
        <ele>51</ele>
        <time>2014-01-08T14:29:06Z</time>
      </trkpt>
      <trkpt lat="46.50984" lon="-1.57628">
        <ele>51</ele>
        <time>2014-01-08T14:29:10Z</time>
      </trkpt>
      <trkpt lat="46.50982" lon="-1.57632">
        <ele>51</ele>
        <time>2014-01-08T14:29:14Z</time>
      </trkpt>
      <trkpt lat="46.5098" lon="-1.57637">
        <ele>50</ele>
        <time>2014-01-08T14:29:18Z</time>
      </trkpt>
      <trkpt lat="46.50977" lon="-1.57642">
        <ele>50</ele>
        <time>2014-01-08T14:29:22Z</time>
      </trkpt>
      <trkpt lat="46.50975" lon="-1.57646">
        <ele>50</ele>
        <time>2014-01-08T14:29:26Z</time>
      </trkpt>
      <trkpt lat="46.50973" lon="-1.57652">
        <ele>50</ele>
        <time>2014-01-08T14:29:30Z</time>
      </trkpt>
      <trkpt lat="46.50972" lon="-1.57657">
        <ele>50</ele>
        <time>2014-01-08T14:29:34Z</time>
      </trkpt>
      <trkpt lat="46.5097" lon="-1.57662">
        <ele>50</ele>
        <time>2014-01-08T14:29:38Z</time>
      </trkpt>
      <trkpt lat="46.50969" lon="-1.57667">
        <ele>49</ele>
        <time>2014-01-08T14:29:42Z</time>
      </trkpt>
      <trkpt lat="46.50968" lon="-1.57673">
        <ele>49</ele>
        <time>2014-01-08T14:29:47Z</time>
      </trkpt>
      <trkpt lat="46.50966" lon="-1.57679">
        <ele>49</ele>
        <time>2014-01-08T14:29:51Z</time>
      </trkpt>
      <trkpt lat="46.50965" lon="-1.57684">
        <ele>49</ele>
        <time>2014-01-08T14:29:55Z</time>
      </trkpt>
      <trkpt lat="46.50963" lon="-1.5769">
        <ele>49</ele>
        <time>2014-01-08T14:29:59Z</time>
      </trkpt>
      <trkpt lat="46.50963" lon="-1.57692">
        <ele>49</ele>
        <time>2014-01-08T14:30:00Z</time>
      </trkpt>
      <trkpt lat="46.50961" lon="-1.57701">
        <ele>49</ele>
        <time>2014-01-08T14:30:06Z</time>
      </trkpt>
      <trkpt lat="46.5096" lon="-1.57706">
        <ele>49</ele>
        <time>2014-01-08T14:30:10Z</time>
      </trkpt>
      <trkpt lat="46.50958" lon="-1.57712">
        <ele>49</ele>
        <time>2014-01-08T14:30:14Z</time>
      </trkpt>
      <trkpt lat="46.50957" lon="-1.57717">
        <ele>49</ele>
        <time>2014-01-08T14:30:17Z</time>
      </trkpt>
      <trkpt lat="46.50955" lon="-1.57722">
        <ele>49</ele>
        <time>2014-01-08T14:30:20Z</time>
      </trkpt>
      <trkpt lat="46.50954" lon="-1.57727">
        <ele>49</ele>
        <time>2014-01-08T14:30:23Z</time>
      </trkpt>
      <trkpt lat="46.50952" lon="-1.57733">
        <ele>49</ele>
        <time>2014-01-08T14:30:26Z</time>
      </trkpt>
      <trkpt lat="46.5095" lon="-1.57737">
        <ele>49</ele>
        <time>2014-01-08T14:30:29Z</time>
      </trkpt>
      <trkpt lat="46.50948" lon="-1.57743">
        <ele>49</ele>
        <time>2014-01-08T14:30:32Z</time>
      </trkpt>
      <trkpt lat="46.50947" lon="-1.57747">
        <ele>49</ele>
        <time>2014-01-08T14:30:35Z</time>
      </trkpt>
      <trkpt lat="46.50945" lon="-1.57752">
        <ele>48</ele>
        <time>2014-01-08T14:30:38Z</time>
      </trkpt>
      <trkpt lat="46.50942" lon="-1.57756">
        <ele>48</ele>
        <time>2014-01-08T14:30:41Z</time>
      </trkpt>
      <trkpt lat="46.50941" lon="-1.57761">
        <ele>48</ele>
        <time>2014-01-08T14:30:44Z</time>
      </trkpt>
      <trkpt lat="46.5094" lon="-1.57766">
        <ele>48</ele>
        <time>2014-01-08T14:30:47Z</time>
      </trkpt>
      <trkpt lat="46.50938" lon="-1.5777">
        <ele>48</ele>
        <time>2014-01-08T14:30:51Z</time>
      </trkpt>
      <trkpt lat="46.50936" lon="-1.57776">
        <ele>48</ele>
        <time>2014-01-08T14:30:55Z</time>
      </trkpt>
      <trkpt lat="46.50934" lon="-1.57782">
        <ele>48</ele>
        <time>2014-01-08T14:30:59Z</time>
      </trkpt>
      <trkpt lat="46.50933" lon="-1.57787">
        <ele>48</ele>
        <time>2014-01-08T14:31:03Z</time>
      </trkpt>
      <trkpt lat="46.50932" lon="-1.57788">
        <ele>48</ele>
        <time>2014-01-08T14:31:04Z</time>
      </trkpt>
      <trkpt lat="46.50929" lon="-1.57798">
        <ele>48</ele>
        <time>2014-01-08T14:31:12Z</time>
      </trkpt>
      <trkpt lat="46.50927" lon="-1.57803">
        <ele>48</ele>
        <time>2014-01-08T14:31:16Z</time>
      </trkpt>
      <trkpt lat="46.50926" lon="-1.57809">
        <ele>47</ele>
        <time>2014-01-08T14:31:20Z</time>
      </trkpt>
      <trkpt lat="46.50924" lon="-1.57814">
        <ele>47</ele>
        <time>2014-01-08T14:31:24Z</time>
      </trkpt>
      <trkpt lat="46.50922" lon="-1.57818">
        <ele>47</ele>
        <time>2014-01-08T14:31:42Z</time>
      </trkpt>
      <trkpt lat="46.5092" lon="-1.57824">
        <ele>47</ele>
        <time>2014-01-08T14:31:46Z</time>
      </trkpt>
      <trkpt lat="46.50919" lon="-1.57829">
        <ele>47</ele>
        <time>2014-01-08T14:31:49Z</time>
      </trkpt>
      <trkpt lat="46.50918" lon="-1.57834">
        <ele>47</ele>
        <time>2014-01-08T14:31:52Z</time>
      </trkpt>
      <trkpt lat="46.50916" lon="-1.57839">
        <ele>47</ele>
        <time>2014-01-08T14:31:55Z</time>
      </trkpt>
      <trkpt lat="46.50914" lon="-1.57843">
        <ele>47</ele>
        <time>2014-01-08T14:31:58Z</time>
      </trkpt>
      <trkpt lat="46.50911" lon="-1.57847">
        <ele>47</ele>
        <time>2014-01-08T14:32:02Z</time>
      </trkpt>
      <trkpt lat="46.50908" lon="-1.57848">
        <ele>47</ele>
        <time>2014-01-08T14:32:05Z</time>
      </trkpt>
      <trkpt lat="46.50907" lon="-1.57848">
        <ele>47</ele>
        <time>2014-01-08T14:32:06Z</time>
      </trkpt>
      <trkpt lat="46.509" lon="-1.57844">
        <ele>47</ele>
        <time>2014-01-08T14:32:13Z</time>
      </trkpt>
      <trkpt lat="46.50896" lon="-1.57842">
        <ele>47</ele>
        <time>2014-01-08T14:32:16Z</time>
      </trkpt>
      <trkpt lat="46.50893" lon="-1.5784">
        <ele>47</ele>
        <time>2014-01-08T14:32:19Z</time>
      </trkpt>
      <trkpt lat="46.5089" lon="-1.57837">
        <ele>47</ele>
        <time>2014-01-08T14:32:22Z</time>
      </trkpt>
      <trkpt lat="46.50886" lon="-1.57835">
        <ele>48</ele>
        <time>2014-01-08T14:32:26Z</time>
      </trkpt>
      <trkpt lat="46.50882" lon="-1.57834">
        <ele>48</ele>
        <time>2014-01-08T14:32:30Z</time>
      </trkpt>
      <trkpt lat="46.50878" lon="-1.57832">
        <ele>48</ele>
        <time>2014-01-08T14:32:33Z</time>
      </trkpt>
      <trkpt lat="46.50874" lon="-1.5783">
        <ele>48</ele>
        <time>2014-01-08T14:32:36Z</time>
      </trkpt>
      <trkpt lat="46.5087" lon="-1.57828">
        <ele>48</ele>
        <time>2014-01-08T14:32:39Z</time>
      </trkpt>
      <trkpt lat="46.50866" lon="-1.57827">
        <ele>48</ele>
        <time>2014-01-08T14:32:42Z</time>
      </trkpt>
      <trkpt lat="46.50863" lon="-1.57825">
        <ele>48</ele>
        <time>2014-01-08T14:32:45Z</time>
      </trkpt>
      <trkpt lat="46.50859" lon="-1.57824">
        <ele>48</ele>
        <time>2014-01-08T14:32:49Z</time>
      </trkpt>
      <trkpt lat="46.50855" lon="-1.57822">
        <ele>48</ele>
        <time>2014-01-08T14:32:53Z</time>
      </trkpt>
      <trkpt lat="46.50851" lon="-1.5782">
        <ele>49</ele>
        <time>2014-01-08T14:32:57Z</time>
      </trkpt>
      <trkpt lat="46.50847" lon="-1.57819">
        <ele>49</ele>
        <time>2014-01-08T14:33:01Z</time>
      </trkpt>
      <trkpt lat="46.50843" lon="-1.57818">
        <ele>49</ele>
        <time>2014-01-08T14:33:06Z</time>
      </trkpt>
      <trkpt lat="46.50843" lon="-1.57818">
        <ele>49</ele>
        <time>2014-01-08T14:33:07Z</time>
      </trkpt>
      <trkpt lat="46.50837" lon="-1.57814">
        <ele>49</ele>
        <time>2014-01-08T14:33:14Z</time>
      </trkpt>
      <trkpt lat="46.50833" lon="-1.57812">
        <ele>49</ele>
        <time>2014-01-08T14:33:18Z</time>
      </trkpt>
      <trkpt lat="46.50829" lon="-1.5781">
        <ele>49</ele>
        <time>2014-01-08T14:33:22Z</time>
      </trkpt>
      <trkpt lat="46.50825" lon="-1.57808">
        <ele>49</ele>
        <time>2014-01-08T14:33:26Z</time>
      </trkpt>
      <trkpt lat="46.50821" lon="-1.57806">
        <ele>49</ele>
        <time>2014-01-08T14:33:30Z</time>
      </trkpt>
      <trkpt lat="46.50818" lon="-1.57803">
        <ele>49</ele>
        <time>2014-01-08T14:33:35Z</time>
      </trkpt>
      <trkpt lat="46.50815" lon="-1.57801">
        <ele>49</ele>
        <time>2014-01-08T14:33:38Z</time>
      </trkpt>
      <trkpt lat="46.50812" lon="-1.57799">
        <ele>49</ele>
        <time>2014-01-08T14:33:41Z</time>
      </trkpt>
      <trkpt lat="46.50808" lon="-1.57797">
        <ele>49</ele>
        <time>2014-01-08T14:33:45Z</time>
      </trkpt>
      <trkpt lat="46.50804" lon="-1.57795">
        <ele>49</ele>
        <time>2014-01-08T14:33:49Z</time>
      </trkpt>
      <trkpt lat="46.508" lon="-1.57793">
        <ele>49</ele>
        <time>2014-01-08T14:33:54Z</time>
      </trkpt>
      <trkpt lat="46.50796" lon="-1.57791">
        <ele>49</ele>
        <time>2014-01-08T14:33:58Z</time>
      </trkpt>
      <trkpt lat="46.50793" lon="-1.57789">
        <ele>49</ele>
        <time>2014-01-08T14:34:02Z</time>
      </trkpt>
      <trkpt lat="46.50788" lon="-1.57787">
        <ele>49</ele>
        <time>2014-01-08T14:34:06Z</time>
      </trkpt>
      <trkpt lat="46.50784" lon="-1.57784">
        <ele>49</ele>
        <time>2014-01-08T14:34:10Z</time>
      </trkpt>
      <trkpt lat="46.50783" lon="-1.57784">
        <ele>49</ele>
        <time>2014-01-08T14:34:11Z</time>
      </trkpt>
      <trkpt lat="46.50777" lon="-1.57781">
        <ele>49</ele>
        <time>2014-01-08T14:34:18Z</time>
      </trkpt>
      <trkpt lat="46.50773" lon="-1.57779">
        <ele>49</ele>
        <time>2014-01-08T14:34:22Z</time>
      </trkpt>
      <trkpt lat="46.5077" lon="-1.57778">
        <ele>49</ele>
        <time>2014-01-08T14:34:26Z</time>
      </trkpt>
      <trkpt lat="46.50766" lon="-1.57775">
        <ele>49</ele>
        <time>2014-01-08T14:34:31Z</time>
      </trkpt>
      <trkpt lat="46.50762" lon="-1.57773">
        <ele>49</ele>
        <time>2014-01-08T14:34:36Z</time>
      </trkpt>
      <trkpt lat="46.50758" lon="-1.57772">
        <ele>48</ele>
        <time>2014-01-08T14:34:40Z</time>
      </trkpt>
      <trkpt lat="46.50755" lon="-1.5777">
        <ele>48</ele>
        <time>2014-01-08T14:34:43Z</time>
      </trkpt>
      <trkpt lat="46.50751" lon="-1.57768">
        <ele>48</ele>
        <time>2014-01-08T14:34:47Z</time>
      </trkpt>
      <trkpt lat="46.50747" lon="-1.57767">
        <ele>49</ele>
        <time>2014-01-08T14:34:51Z</time>
      </trkpt>
      <trkpt lat="46.50743" lon="-1.57765">
        <ele>49</ele>
        <time>2014-01-08T14:34:55Z</time>
      </trkpt>
      <trkpt lat="46.50739" lon="-1.57764">
        <ele>49</ele>
        <time>2014-01-08T14:34:59Z</time>
      </trkpt>
      <trkpt lat="46.50735" lon="-1.57761">
        <ele>49</ele>
        <time>2014-01-08T14:35:03Z</time>
      </trkpt>
      <trkpt lat="46.50731" lon="-1.57759">
        <ele>49</ele>
        <time>2014-01-08T14:35:07Z</time>
      </trkpt>
      <trkpt lat="46.50728" lon="-1.57757">
        <ele>49</ele>
        <time>2014-01-08T14:35:11Z</time>
      </trkpt>
      <trkpt lat="46.50727" lon="-1.57757">
        <ele>49</ele>
        <time>2014-01-08T14:35:12Z</time>
      </trkpt>
      <trkpt lat="46.5072" lon="-1.57753">
        <ele>49</ele>
        <time>2014-01-08T14:35:20Z</time>
      </trkpt>
      <trkpt lat="46.50717" lon="-1.57751">
        <ele>49</ele>
        <time>2014-01-08T14:35:24Z</time>
      </trkpt>
      <trkpt lat="46.50713" lon="-1.57749">
        <ele>50</ele>
        <time>2014-01-08T14:35:28Z</time>
      </trkpt>
      <trkpt lat="46.50709" lon="-1.57748">
        <ele>50</ele>
        <time>2014-01-08T14:35:34Z</time>
      </trkpt>
      <trkpt lat="46.50705" lon="-1.57745">
        <ele>50</ele>
        <time>2014-01-08T14:35:39Z</time>
      </trkpt>
      <trkpt lat="46.50701" lon="-1.57743">
        <ele>50</ele>
        <time>2014-01-08T14:35:44Z</time>
      </trkpt>
      <trkpt lat="46.50698" lon="-1.57742">
        <ele>50</ele>
        <time>2014-01-08T14:35:48Z</time>
      </trkpt>
      <trkpt lat="46.50694" lon="-1.5774">
        <ele>50</ele>
        <time>2014-01-08T14:35:51Z</time>
      </trkpt>
      <trkpt lat="46.50691" lon="-1.57737">
        <ele>50</ele>
        <time>2014-01-08T14:35:54Z</time>
      </trkpt>
      <trkpt lat="46.50687" lon="-1.57734">
        <ele>50</ele>
        <time>2014-01-08T14:35:57Z</time>
      </trkpt>
      <trkpt lat="46.50683" lon="-1.57732">
        <ele>50</ele>
        <time>2014-01-08T14:36:00Z</time>
      </trkpt>
      <trkpt lat="46.50679" lon="-1.5773">
        <ele>50</ele>
        <time>2014-01-08T14:36:03Z</time>
      </trkpt>
      <trkpt lat="46.50676" lon="-1.5773">
        <ele>50</ele>
        <time>2014-01-08T14:36:06Z</time>
      </trkpt>
      <trkpt lat="46.50672" lon="-1.5773">
        <ele>50</ele>
        <time>2014-01-08T14:36:09Z</time>
      </trkpt>
      <trkpt lat="46.50669" lon="-1.57731">
        <ele>50</ele>
        <time>2014-01-08T14:36:12Z</time>
      </trkpt>
      <trkpt lat="46.50668" lon="-1.57732">
        <ele>50</ele>
        <time>2014-01-08T14:36:13Z</time>
      </trkpt>
      <trkpt lat="46.50665" lon="-1.57741">
        <ele>51</ele>
        <time>2014-01-08T14:36:20Z</time>
      </trkpt>
      <trkpt lat="46.50666" lon="-1.57746">
        <ele>51</ele>
        <time>2014-01-08T14:36:24Z</time>
      </trkpt>
      <trkpt lat="46.50667" lon="-1.57751">
        <ele>51</ele>
        <time>2014-01-08T14:36:28Z</time>
      </trkpt>
      <trkpt lat="46.50666" lon="-1.57757">
        <ele>51</ele>
        <time>2014-01-08T14:36:31Z</time>
      </trkpt>
      <trkpt lat="46.50667" lon="-1.57762">
        <ele>51</ele>
        <time>2014-01-08T14:36:34Z</time>
      </trkpt>
      <trkpt lat="46.50667" lon="-1.57768">
        <ele>50</ele>
        <time>2014-01-08T14:36:38Z</time>
      </trkpt>
      <trkpt lat="46.50667" lon="-1.57773">
        <ele>50</ele>
        <time>2014-01-08T14:36:41Z</time>
      </trkpt>
      <trkpt lat="46.50667" lon="-1.57778">
        <ele>50</ele>
        <time>2014-01-08T14:36:44Z</time>
      </trkpt>
      <trkpt lat="46.50668" lon="-1.57784">
        <ele>50</ele>
        <time>2014-01-08T14:36:48Z</time>
      </trkpt>
      <trkpt lat="46.50668" lon="-1.5779">
        <ele>50</ele>
        <time>2014-01-08T14:36:52Z</time>
      </trkpt>
      <trkpt lat="46.50669" lon="-1.57796">
        <ele>50</ele>
        <time>2014-01-08T14:36:56Z</time>
      </trkpt>
      <trkpt lat="46.50669" lon="-1.57802">
        <ele>50</ele>
        <time>2014-01-08T14:37:00Z</time>
      </trkpt>
      <trkpt lat="46.5067" lon="-1.57808">
        <ele>50</ele>
        <time>2014-01-08T14:37:04Z</time>
      </trkpt>
      <trkpt lat="46.50671" lon="-1.57814">
        <ele>50</ele>
        <time>2014-01-08T14:37:07Z</time>
      </trkpt>
      <trkpt lat="46.50671" lon="-1.57819">
        <ele>50</ele>
        <time>2014-01-08T14:37:10Z</time>
      </trkpt>
      <trkpt lat="46.50672" lon="-1.57824">
        <ele>50</ele>
        <time>2014-01-08T14:37:13Z</time>
      </trkpt>
      <trkpt lat="46.50672" lon="-1.57825">
        <ele>50</ele>
        <time>2014-01-08T14:37:14Z</time>
      </trkpt>
      <trkpt lat="46.50673" lon="-1.57834">
        <ele>50</ele>
        <time>2014-01-08T14:37:21Z</time>
      </trkpt>
      <trkpt lat="46.50673" lon="-1.5784">
        <ele>50</ele>
        <time>2014-01-08T14:37:25Z</time>
      </trkpt>
      <trkpt lat="46.50674" lon="-1.57846">
        <ele>50</ele>
        <time>2014-01-08T14:37:29Z</time>
      </trkpt>
      <trkpt lat="46.50673" lon="-1.57851">
        <ele>50</ele>
        <time>2014-01-08T14:37:32Z</time>
      </trkpt>
      <trkpt lat="46.50673" lon="-1.57857">
        <ele>50</ele>
        <time>2014-01-08T14:37:35Z</time>
      </trkpt>
      <trkpt lat="46.5067" lon="-1.57862">
        <ele>49</ele>
        <time>2014-01-08T14:37:40Z</time>
      </trkpt>
      <trkpt lat="46.50666" lon="-1.57865">
        <ele>49</ele>
        <time>2014-01-08T14:37:45Z</time>
      </trkpt>
      <trkpt lat="46.50668" lon="-1.57859">
        <ele>49</ele>
        <time>2014-01-08T14:38:17Z</time>
      </trkpt>
      <trkpt lat="46.50669" lon="-1.57859">
        <ele>49</ele>
        <time>2014-01-08T14:38:18Z</time>
      </trkpt>
      <trkpt lat="46.50668" lon="-1.57871">
        <ele>49</ele>
        <time>2014-01-08T14:38:57Z</time>
      </trkpt>
      <trkpt lat="46.50665" lon="-1.57875">
        <ele>49</ele>
        <time>2014-01-08T14:39:11Z</time>
      </trkpt>
      <trkpt lat="46.5066" lon="-1.57873">
        <ele>49</ele>
        <time>2014-01-08T14:40:05Z</time>
      </trkpt>
      <trkpt lat="46.5066" lon="-1.57872">
        <ele>49</ele>
        <time>2014-01-08T14:40:06Z</time>
      </trkpt>
      <trkpt lat="46.50654" lon="-1.57866">
        <ele>49</ele>
        <time>2014-01-08T14:40:48Z</time>
      </trkpt>
      <trkpt lat="46.50652" lon="-1.5786">
        <ele>49</ele>
        <time>2014-01-08T14:40:55Z</time>
      </trkpt>
      <trkpt lat="46.5065" lon="-1.57855">
        <ele>49</ele>
        <time>2014-01-08T14:41:02Z</time>
      </trkpt>
      <trkpt lat="46.50648" lon="-1.57851">
        <ele>49</ele>
        <time>2014-01-08T14:41:07Z</time>
      </trkpt>
      <trkpt lat="46.50647" lon="-1.57849">
        <ele>49</ele>
        <time>2014-01-08T14:41:08Z</time>
      </trkpt>
      <trkpt lat="46.50643" lon="-1.57842">
        <ele>49</ele>
        <time>2014-01-08T14:41:17Z</time>
      </trkpt>
      <trkpt lat="46.5064" lon="-1.57837">
        <ele>49</ele>
        <time>2014-01-08T14:41:22Z</time>
      </trkpt>
      <trkpt lat="46.50636" lon="-1.57833">
        <ele>50</ele>
        <time>2014-01-08T14:41:27Z</time>
      </trkpt>
      <trkpt lat="46.50634" lon="-1.5783">
        <ele>50</ele>
        <time>2014-01-08T14:41:31Z</time>
      </trkpt>
      <trkpt lat="46.50631" lon="-1.57826">
        <ele>50</ele>
        <time>2014-01-08T14:41:35Z</time>
      </trkpt>
      <trkpt lat="46.50628" lon="-1.57822">
        <ele>50</ele>
        <time>2014-01-08T14:41:39Z</time>
      </trkpt>
      <trkpt lat="46.50625" lon="-1.57818">
        <ele>50</ele>
        <time>2014-01-08T14:41:43Z</time>
      </trkpt>
      <trkpt lat="46.50622" lon="-1.57814">
        <ele>50</ele>
        <time>2014-01-08T14:41:47Z</time>
      </trkpt>
      <trkpt lat="46.5062" lon="-1.57811">
        <ele>50</ele>
        <time>2014-01-08T14:41:50Z</time>
      </trkpt>
      <trkpt lat="46.50616" lon="-1.57807">
        <ele>50</ele>
        <time>2014-01-08T14:41:54Z</time>
      </trkpt>
      <trkpt lat="46.50613" lon="-1.57803">
        <ele>50</ele>
        <time>2014-01-08T14:41:58Z</time>
      </trkpt>
      <trkpt lat="46.5061" lon="-1.578">
        <ele>50</ele>
        <time>2014-01-08T14:42:02Z</time>
      </trkpt>
      <trkpt lat="46.50606" lon="-1.57797">
        <ele>50</ele>
        <time>2014-01-08T14:42:06Z</time>
      </trkpt>
      <trkpt lat="46.50603" lon="-1.57793">
        <ele>50</ele>
        <time>2014-01-08T14:42:10Z</time>
      </trkpt>
      <trkpt lat="46.50602" lon="-1.57792">
        <ele>50</ele>
        <time>2014-01-08T14:42:11Z</time>
      </trkpt>
      <trkpt lat="46.50596" lon="-1.57785">
        <ele>50</ele>
        <time>2014-01-08T14:42:18Z</time>
      </trkpt>
      <trkpt lat="46.50594" lon="-1.57782">
        <ele>49</ele>
        <time>2014-01-08T14:42:21Z</time>
      </trkpt>
      <trkpt lat="46.50591" lon="-1.57779">
        <ele>49</ele>
        <time>2014-01-08T14:42:24Z</time>
      </trkpt>
      <trkpt lat="46.50588" lon="-1.57776">
        <ele>49</ele>
        <time>2014-01-08T14:42:27Z</time>
      </trkpt>
      <trkpt lat="46.50585" lon="-1.57773">
        <ele>49</ele>
        <time>2014-01-08T14:42:31Z</time>
      </trkpt>
      <trkpt lat="46.50582" lon="-1.5777">
        <ele>48</ele>
        <time>2014-01-08T14:42:35Z</time>
      </trkpt>
      <trkpt lat="46.50579" lon="-1.57766">
        <ele>48</ele>
        <time>2014-01-08T14:42:39Z</time>
      </trkpt>
      <trkpt lat="46.50575" lon="-1.57763">
        <ele>48</ele>
        <time>2014-01-08T14:42:44Z</time>
      </trkpt>
      <trkpt lat="46.50572" lon="-1.5776">
        <ele>48</ele>
        <time>2014-01-08T14:42:48Z</time>
      </trkpt>
      <trkpt lat="46.50568" lon="-1.57756">
        <ele>48</ele>
        <time>2014-01-08T14:42:52Z</time>
      </trkpt>
      <trkpt lat="46.50565" lon="-1.57753">
        <ele>48</ele>
        <time>2014-01-08T14:42:57Z</time>
      </trkpt>
      <trkpt lat="46.50562" lon="-1.57751">
        <ele>48</ele>
        <time>2014-01-08T14:43:01Z</time>
      </trkpt>
      <trkpt lat="46.50558" lon="-1.57748">
        <ele>49</ele>
        <time>2014-01-08T14:43:06Z</time>
      </trkpt>
      <trkpt lat="46.50554" lon="-1.57745">
        <ele>49</ele>
        <time>2014-01-08T14:43:11Z</time>
      </trkpt>
      <trkpt lat="46.50553" lon="-1.57744">
        <ele>49</ele>
        <time>2014-01-08T14:43:12Z</time>
      </trkpt>
      <trkpt lat="46.50547" lon="-1.57739">
        <ele>48</ele>
        <time>2014-01-08T14:43:19Z</time>
      </trkpt>
      <trkpt lat="46.50543" lon="-1.57736">
        <ele>48</ele>
        <time>2014-01-08T14:43:23Z</time>
      </trkpt>
      <trkpt lat="46.50541" lon="-1.57733">
        <ele>48</ele>
        <time>2014-01-08T14:43:26Z</time>
      </trkpt>
      <trkpt lat="46.50538" lon="-1.57731">
        <ele>48</ele>
        <time>2014-01-08T14:43:29Z</time>
      </trkpt>
      <trkpt lat="46.50534" lon="-1.57728">
        <ele>48</ele>
        <time>2014-01-08T14:43:33Z</time>
      </trkpt>
      <trkpt lat="46.5053" lon="-1.57725">
        <ele>48</ele>
        <time>2014-01-08T14:43:37Z</time>
      </trkpt>
      <trkpt lat="46.50526" lon="-1.57722">
        <ele>48</ele>
        <time>2014-01-08T14:43:40Z</time>
      </trkpt>
      <trkpt lat="46.50523" lon="-1.5772">
        <ele>48</ele>
        <time>2014-01-08T14:43:43Z</time>
      </trkpt>
      <trkpt lat="46.50519" lon="-1.57717">
        <ele>48</ele>
        <time>2014-01-08T14:43:47Z</time>
      </trkpt>
      <trkpt lat="46.50515" lon="-1.57716">
        <ele>48</ele>
        <time>2014-01-08T14:43:51Z</time>
      </trkpt>
      <trkpt lat="46.50512" lon="-1.57713">
        <ele>48</ele>
        <time>2014-01-08T14:43:55Z</time>
      </trkpt>
      <trkpt lat="46.50508" lon="-1.57711">
        <ele>48</ele>
        <time>2014-01-08T14:44:00Z</time>
      </trkpt>
      <trkpt lat="46.50505" lon="-1.57709">
        <ele>48</ele>
        <time>2014-01-08T14:44:04Z</time>
      </trkpt>
      <trkpt lat="46.50502" lon="-1.57705">
        <ele>48</ele>
        <time>2014-01-08T14:44:08Z</time>
      </trkpt>
      <trkpt lat="46.50498" lon="-1.57702">
        <ele>47</ele>
        <time>2014-01-08T14:44:12Z</time>
      </trkpt>
      <trkpt lat="46.50497" lon="-1.57701">
        <ele>47</ele>
        <time>2014-01-08T14:44:13Z</time>
      </trkpt>
      <trkpt lat="46.50491" lon="-1.57697">
        <ele>47</ele>
        <time>2014-01-08T14:44:20Z</time>
      </trkpt>
      <trkpt lat="46.50487" lon="-1.57695">
        <ele>47</ele>
        <time>2014-01-08T14:44:24Z</time>
      </trkpt>
      <trkpt lat="46.50483" lon="-1.57692">
        <ele>47</ele>
        <time>2014-01-08T14:44:29Z</time>
      </trkpt>
      <trkpt lat="46.50481" lon="-1.57688">
        <ele>48</ele>
        <time>2014-01-08T14:44:33Z</time>
      </trkpt>
      <trkpt lat="46.50479" lon="-1.57682">
        <ele>48</ele>
        <time>2014-01-08T14:44:38Z</time>
      </trkpt>
      <trkpt lat="46.50481" lon="-1.57677">
        <ele>48</ele>
        <time>2014-01-08T14:44:42Z</time>
      </trkpt>
      <trkpt lat="46.50483" lon="-1.57672">
        <ele>48</ele>
        <time>2014-01-08T14:44:47Z</time>
      </trkpt>
      <trkpt lat="46.50485" lon="-1.57667">
        <ele>48</ele>
        <time>2014-01-08T14:44:53Z</time>
      </trkpt>
      <trkpt lat="46.50488" lon="-1.57662">
        <ele>48</ele>
        <time>2014-01-08T14:44:58Z</time>
      </trkpt>
      <trkpt lat="46.5049" lon="-1.57658">
        <ele>48</ele>
        <time>2014-01-08T14:45:03Z</time>
      </trkpt>
      <trkpt lat="46.50493" lon="-1.57654">
        <ele>48</ele>
        <time>2014-01-08T14:45:07Z</time>
      </trkpt>
      <trkpt lat="46.50496" lon="-1.57652">
        <ele>48</ele>
        <time>2014-01-08T14:45:10Z</time>
      </trkpt>
      <trkpt lat="46.50499" lon="-1.57649">
        <ele>48</ele>
        <time>2014-01-08T14:45:13Z</time>
      </trkpt>
      <trkpt lat="46.505" lon="-1.57648">
        <ele>49</ele>
        <time>2014-01-08T14:45:14Z</time>
      </trkpt>
      <trkpt lat="46.50506" lon="-1.57641">
        <ele>49</ele>
        <time>2014-01-08T14:45:21Z</time>
      </trkpt>
      <trkpt lat="46.50509" lon="-1.57638">
        <ele>49</ele>
        <time>2014-01-08T14:45:24Z</time>
      </trkpt>
      <trkpt lat="46.50512" lon="-1.57634">
        <ele>49</ele>
        <time>2014-01-08T14:45:28Z</time>
      </trkpt>
      <trkpt lat="46.50515" lon="-1.57631">
        <ele>49</ele>
        <time>2014-01-08T14:45:31Z</time>
      </trkpt>
      <trkpt lat="46.50518" lon="-1.57627">
        <ele>49</ele>
        <time>2014-01-08T14:45:35Z</time>
      </trkpt>
      <trkpt lat="46.50521" lon="-1.57623">
        <ele>49</ele>
        <time>2014-01-08T14:45:39Z</time>
      </trkpt>
      <trkpt lat="46.50524" lon="-1.5762">
        <ele>49</ele>
        <time>2014-01-08T14:45:42Z</time>
      </trkpt>
      <trkpt lat="46.50528" lon="-1.57617">
        <ele>49</ele>
        <time>2014-01-08T14:45:46Z</time>
      </trkpt>
      <trkpt lat="46.5053" lon="-1.57614">
        <ele>49</ele>
        <time>2014-01-08T14:45:50Z</time>
      </trkpt>
      <trkpt lat="46.50533" lon="-1.5761">
        <ele>49</ele>
        <time>2014-01-08T14:45:54Z</time>
      </trkpt>
      <trkpt lat="46.50537" lon="-1.57607">
        <ele>50</ele>
        <time>2014-01-08T14:45:58Z</time>
      </trkpt>
      <trkpt lat="46.5054" lon="-1.57604">
        <ele>50</ele>
        <time>2014-01-08T14:46:02Z</time>
      </trkpt>
      <trkpt lat="46.50544" lon="-1.57601">
        <ele>50</ele>
        <time>2014-01-08T14:46:06Z</time>
      </trkpt>
      <trkpt lat="46.50547" lon="-1.57598">
        <ele>50</ele>
        <time>2014-01-08T14:46:09Z</time>
      </trkpt>
      <trkpt lat="46.50551" lon="-1.57595">
        <ele>50</ele>
        <time>2014-01-08T14:46:13Z</time>
      </trkpt>
      <trkpt lat="46.50555" lon="-1.57592">
        <ele>50</ele>
        <time>2014-01-08T14:46:17Z</time>
      </trkpt>
      <trkpt lat="46.50556" lon="-1.57591">
        <ele>50</ele>
        <time>2014-01-08T14:46:18Z</time>
      </trkpt>
      <trkpt lat="46.50561" lon="-1.57585">
        <ele>50</ele>
        <time>2014-01-08T14:46:25Z</time>
      </trkpt>
      <trkpt lat="46.50564" lon="-1.57581">
        <ele>50</ele>
        <time>2014-01-08T14:46:29Z</time>
      </trkpt>
      <trkpt lat="46.50568" lon="-1.57578">
        <ele>50</ele>
        <time>2014-01-08T14:46:33Z</time>
      </trkpt>
      <trkpt lat="46.50571" lon="-1.57574">
        <ele>50</ele>
        <time>2014-01-08T14:46:37Z</time>
      </trkpt>
      <trkpt lat="46.50574" lon="-1.57571">
        <ele>50</ele>
        <time>2014-01-08T14:46:41Z</time>
      </trkpt>
      <trkpt lat="46.50578" lon="-1.57568">
        <ele>50</ele>
        <time>2014-01-08T14:46:45Z</time>
      </trkpt>
      <trkpt lat="46.50581" lon="-1.57565">
        <ele>50</ele>
        <time>2014-01-08T14:46:49Z</time>
      </trkpt>
      <trkpt lat="46.50585" lon="-1.57562">
        <ele>51</ele>
        <time>2014-01-08T14:46:53Z</time>
      </trkpt>
      <trkpt lat="46.50588" lon="-1.57558">
        <ele>51</ele>
        <time>2014-01-08T14:46:58Z</time>
      </trkpt>
      <trkpt lat="46.50592" lon="-1.57554">
        <ele>51</ele>
        <time>2014-01-08T14:47:03Z</time>
      </trkpt>
      <trkpt lat="46.50596" lon="-1.57552">
        <ele>50</ele>
        <time>2014-01-08T14:47:08Z</time>
      </trkpt>
      <trkpt lat="46.50599" lon="-1.57549">
        <ele>50</ele>
        <time>2014-01-08T14:47:12Z</time>
      </trkpt>
      <trkpt lat="46.50602" lon="-1.57547">
        <ele>50</ele>
        <time>2014-01-08T14:47:16Z</time>
      </trkpt>
      <trkpt lat="46.50606" lon="-1.57544">
        <ele>50</ele>
        <time>2014-01-08T14:47:21Z</time>
      </trkpt>
      <trkpt lat="46.50607" lon="-1.57543">
        <ele>50</ele>
        <time>2014-01-08T14:47:22Z</time>
      </trkpt>
      <trkpt lat="46.50613" lon="-1.57537">
        <ele>50</ele>
        <time>2014-01-08T14:47:30Z</time>
      </trkpt>
      <trkpt lat="46.50616" lon="-1.57534">
        <ele>50</ele>
        <time>2014-01-08T14:47:33Z</time>
      </trkpt>
      <trkpt lat="46.50619" lon="-1.5753">
        <ele>50</ele>
        <time>2014-01-08T14:47:37Z</time>
      </trkpt>
      <trkpt lat="46.50623" lon="-1.57526">
        <ele>50</ele>
        <time>2014-01-08T14:47:41Z</time>
      </trkpt>
      <trkpt lat="46.50626" lon="-1.57523">
        <ele>50</ele>
        <time>2014-01-08T14:47:45Z</time>
      </trkpt>
      <trkpt lat="46.50629" lon="-1.57519">
        <ele>50</ele>
        <time>2014-01-08T14:47:49Z</time>
      </trkpt>
      <trkpt lat="46.50632" lon="-1.57516">
        <ele>50</ele>
        <time>2014-01-08T14:47:53Z</time>
      </trkpt>
      <trkpt lat="46.50635" lon="-1.57512">
        <ele>50</ele>
        <time>2014-01-08T14:47:57Z</time>
      </trkpt>
      <trkpt lat="46.50638" lon="-1.57508">
        <ele>51</ele>
        <time>2014-01-08T14:48:01Z</time>
      </trkpt>
      <trkpt lat="46.50641" lon="-1.57505">
        <ele>51</ele>
        <time>2014-01-08T14:48:05Z</time>
      </trkpt>
      <trkpt lat="46.50645" lon="-1.57502">
        <ele>51</ele>
        <time>2014-01-08T14:48:09Z</time>
      </trkpt>
      <trkpt lat="46.50648" lon="-1.57499">
        <ele>50</ele>
        <time>2014-01-08T14:48:13Z</time>
      </trkpt>
      <trkpt lat="46.50651" lon="-1.57495">
        <ele>50</ele>
        <time>2014-01-08T14:48:17Z</time>
      </trkpt>
      <trkpt lat="46.50654" lon="-1.57492">
        <ele>51</ele>
        <time>2014-01-08T14:48:21Z</time>
      </trkpt>
      <trkpt lat="46.50658" lon="-1.57489">
        <ele>51</ele>
        <time>2014-01-08T14:48:25Z</time>
      </trkpt>
      <trkpt lat="46.50659" lon="-1.57488">
        <ele>51</ele>
        <time>2014-01-08T14:48:26Z</time>
      </trkpt>
      <trkpt lat="46.50664" lon="-1.57482">
        <ele>50</ele>
        <time>2014-01-08T14:48:32Z</time>
      </trkpt>
      <trkpt lat="46.50667" lon="-1.57478">
        <ele>51</ele>
        <time>2014-01-08T14:48:35Z</time>
      </trkpt>
      <trkpt lat="46.5067" lon="-1.57475">
        <ele>51</ele>
        <time>2014-01-08T14:48:38Z</time>
      </trkpt>
      <trkpt lat="46.50673" lon="-1.57472">
        <ele>51</ele>
        <time>2014-01-08T14:48:41Z</time>
      </trkpt>
      <trkpt lat="46.50676" lon="-1.57468">
        <ele>51</ele>
        <time>2014-01-08T14:48:44Z</time>
      </trkpt>
      <trkpt lat="46.50679" lon="-1.57465">
        <ele>51</ele>
        <time>2014-01-08T14:48:47Z</time>
      </trkpt>
      <trkpt lat="46.50682" lon="-1.57462">
        <ele>51</ele>
        <time>2014-01-08T14:48:50Z</time>
      </trkpt>
      <trkpt lat="46.50685" lon="-1.57459">
        <ele>51</ele>
        <time>2014-01-08T14:48:53Z</time>
      </trkpt>
      <trkpt lat="46.50688" lon="-1.57455">
        <ele>50</ele>
        <time>2014-01-08T14:48:57Z</time>
      </trkpt>
      <trkpt lat="46.50691" lon="-1.57452">
        <ele>50</ele>
        <time>2014-01-08T14:49:00Z</time>
      </trkpt>
      <trkpt lat="46.50694" lon="-1.57448">
        <ele>50</ele>
        <time>2014-01-08T14:49:03Z</time>
      </trkpt>
      <trkpt lat="46.50697" lon="-1.57445">
        <ele>50</ele>
        <time>2014-01-08T14:49:06Z</time>
      </trkpt>
      <trkpt lat="46.50699" lon="-1.57442">
        <ele>50</ele>
        <time>2014-01-08T14:49:09Z</time>
      </trkpt>
      <trkpt lat="46.50702" lon="-1.57439">
        <ele>50</ele>
        <time>2014-01-08T14:49:12Z</time>
      </trkpt>
      <trkpt lat="46.50705" lon="-1.57436">
        <ele>50</ele>
        <time>2014-01-08T14:49:15Z</time>
      </trkpt>
      <trkpt lat="46.50709" lon="-1.57433">
        <ele>51</ele>
        <time>2014-01-08T14:49:18Z</time>
      </trkpt>
      <trkpt lat="46.50711" lon="-1.5743">
        <ele>51</ele>
        <time>2014-01-08T14:49:21Z</time>
      </trkpt>
      <trkpt lat="46.50714" lon="-1.57427">
        <ele>51</ele>
        <time>2014-01-08T14:49:24Z</time>
      </trkpt>
      <trkpt lat="46.50717" lon="-1.57425">
        <ele>51</ele>
        <time>2014-01-08T14:49:27Z</time>
      </trkpt>
      <trkpt lat="46.50718" lon="-1.57424">
        <ele>51</ele>
        <time>2014-01-08T14:49:28Z</time>
      </trkpt>
      <trkpt lat="46.50724" lon="-1.57419">
        <ele>51</ele>
        <time>2014-01-08T14:49:33Z</time>
      </trkpt>
      <trkpt lat="46.50726" lon="-1.57416">
        <ele>51</ele>
        <time>2014-01-08T14:49:36Z</time>
      </trkpt>
      <trkpt lat="46.50729" lon="-1.57414">
        <ele>51</ele>
        <time>2014-01-08T14:49:39Z</time>
      </trkpt>
      <trkpt lat="46.50733" lon="-1.5741">
        <ele>51</ele>
        <time>2014-01-08T14:49:43Z</time>
      </trkpt>
      <trkpt lat="46.50737" lon="-1.57407">
        <ele>51</ele>
        <time>2014-01-08T14:49:47Z</time>
      </trkpt>
      <trkpt lat="46.5074" lon="-1.57404">
        <ele>51</ele>
        <time>2014-01-08T14:49:50Z</time>
      </trkpt>
      <trkpt lat="46.50743" lon="-1.57401">
        <ele>51</ele>
        <time>2014-01-08T14:49:54Z</time>
      </trkpt>
      <trkpt lat="46.50746" lon="-1.57397">
        <ele>51</ele>
        <time>2014-01-08T14:49:58Z</time>
      </trkpt>
      <trkpt lat="46.50749" lon="-1.57393">
        <ele>51</ele>
        <time>2014-01-08T14:50:02Z</time>
      </trkpt>
      <trkpt lat="46.50752" lon="-1.5739">
        <ele>52</ele>
        <time>2014-01-08T14:50:05Z</time>
      </trkpt>
      <trkpt lat="46.50756" lon="-1.57387">
        <ele>52</ele>
        <time>2014-01-08T14:50:09Z</time>
      </trkpt>
      <trkpt lat="46.50759" lon="-1.57383">
        <ele>52</ele>
        <time>2014-01-08T14:50:13Z</time>
      </trkpt>
      <trkpt lat="46.50762" lon="-1.57379">
        <ele>52</ele>
        <time>2014-01-08T14:50:17Z</time>
      </trkpt>
      <trkpt lat="46.50766" lon="-1.57376">
        <ele>52</ele>
        <time>2014-01-08T14:50:22Z</time>
      </trkpt>
      <trkpt lat="46.50769" lon="-1.57372">
        <ele>52</ele>
        <time>2014-01-08T14:50:27Z</time>
      </trkpt>
      <trkpt lat="46.50772" lon="-1.57368">
        <ele>52</ele>
        <time>2014-01-08T14:50:32Z</time>
      </trkpt>
      <trkpt lat="46.50773" lon="-1.57367">
        <ele>52</ele>
        <time>2014-01-08T14:50:33Z</time>
      </trkpt>
      <trkpt lat="46.50779" lon="-1.57362">
        <ele>52</ele>
        <time>2014-01-08T14:50:40Z</time>
      </trkpt>
      <trkpt lat="46.50782" lon="-1.57359">
        <ele>52</ele>
        <time>2014-01-08T14:50:44Z</time>
      </trkpt>
      <trkpt lat="46.50785" lon="-1.57357">
        <ele>52</ele>
        <time>2014-01-08T14:50:48Z</time>
      </trkpt>
      <trkpt lat="46.50788" lon="-1.57354">
        <ele>52</ele>
        <time>2014-01-08T14:50:52Z</time>
      </trkpt>
      <trkpt lat="46.50792" lon="-1.57351">
        <ele>52</ele>
        <time>2014-01-08T14:50:56Z</time>
      </trkpt>
      <trkpt lat="46.50795" lon="-1.57347">
        <ele>52</ele>
        <time>2014-01-08T14:51:00Z</time>
      </trkpt>
      <trkpt lat="46.50798" lon="-1.57344">
        <ele>52</ele>
        <time>2014-01-08T14:51:04Z</time>
      </trkpt>
      <trkpt lat="46.50802" lon="-1.57341">
        <ele>52</ele>
        <time>2014-01-08T14:51:08Z</time>
      </trkpt>
      <trkpt lat="46.50805" lon="-1.57338">
        <ele>52</ele>
        <time>2014-01-08T14:51:12Z</time>
      </trkpt>
      <trkpt lat="46.50808" lon="-1.57335">
        <ele>52</ele>
        <time>2014-01-08T14:51:16Z</time>
      </trkpt>
      <trkpt lat="46.50812" lon="-1.57332">
        <ele>53</ele>
        <time>2014-01-08T14:51:20Z</time>
      </trkpt>
      <trkpt lat="46.50815" lon="-1.57329">
        <ele>53</ele>
        <time>2014-01-08T14:51:23Z</time>
      </trkpt>
      <trkpt lat="46.50818" lon="-1.57326">
        <ele>53</ele>
        <time>2014-01-08T14:51:26Z</time>
      </trkpt>
      <trkpt lat="46.50821" lon="-1.57324">
        <ele>53</ele>
        <time>2014-01-08T14:51:29Z</time>
      </trkpt>
      <trkpt lat="46.50824" lon="-1.57321">
        <ele>53</ele>
        <time>2014-01-08T14:51:32Z</time>
      </trkpt>
      <trkpt lat="46.50827" lon="-1.57319">
        <ele>53</ele>
        <time>2014-01-08T14:51:35Z</time>
      </trkpt>
      <trkpt lat="46.50828" lon="-1.57318">
        <ele>53</ele>
        <time>2014-01-08T14:51:36Z</time>
      </trkpt>
      <trkpt lat="46.50833" lon="-1.57313">
        <ele>53</ele>
        <time>2014-01-08T14:51:41Z</time>
      </trkpt>
      <trkpt lat="46.50836" lon="-1.5731">
        <ele>52</ele>
        <time>2014-01-08T14:51:44Z</time>
      </trkpt>
      <trkpt lat="46.50839" lon="-1.57307">
        <ele>52</ele>
        <time>2014-01-08T14:51:47Z</time>
      </trkpt>
      <trkpt lat="46.50843" lon="-1.57304">
        <ele>52</ele>
        <time>2014-01-08T14:51:51Z</time>
      </trkpt>
      <trkpt lat="46.50847" lon="-1.57301">
        <ele>52</ele>
        <time>2014-01-08T14:51:55Z</time>
      </trkpt>
      <trkpt lat="46.50849" lon="-1.57296">
        <ele>52</ele>
        <time>2014-01-08T14:52:01Z</time>
      </trkpt>
      <trkpt lat="46.50853" lon="-1.57292">
        <ele>52</ele>
        <time>2014-01-08T14:52:05Z</time>
      </trkpt>
      <trkpt lat="46.50856" lon="-1.5729">
        <ele>52</ele>
        <time>2014-01-08T14:52:08Z</time>
      </trkpt>
      <trkpt lat="46.50859" lon="-1.57287">
        <ele>52</ele>
        <time>2014-01-08T14:52:11Z</time>
      </trkpt>
      <trkpt lat="46.50862" lon="-1.57284">
        <ele>52</ele>
        <time>2014-01-08T14:52:14Z</time>
      </trkpt>
      <trkpt lat="46.50865" lon="-1.57281">
        <ele>52</ele>
        <time>2014-01-08T14:52:17Z</time>
      </trkpt>
      <trkpt lat="46.50869" lon="-1.57279">
        <ele>52</ele>
        <time>2014-01-08T14:52:23Z</time>
      </trkpt>
      <trkpt lat="46.50871" lon="-1.57276">
        <ele>52</ele>
        <time>2014-01-08T14:52:26Z</time>
      </trkpt>
      <trkpt lat="46.50873" lon="-1.57271">
        <ele>52</ele>
        <time>2014-01-08T14:52:29Z</time>
      </trkpt>
      <trkpt lat="46.50874" lon="-1.57265">
        <ele>52</ele>
        <time>2014-01-08T14:52:32Z</time>
      </trkpt>
      <trkpt lat="46.50873" lon="-1.57259">
        <ele>52</ele>
        <time>2014-01-08T14:52:36Z</time>
      </trkpt>
      <trkpt lat="46.50872" lon="-1.57258">
        <ele>52</ele>
        <time>2014-01-08T14:52:37Z</time>
      </trkpt>
      <trkpt lat="46.50869" lon="-1.5725">
        <ele>52</ele>
        <time>2014-01-08T14:52:42Z</time>
      </trkpt>
      <trkpt lat="46.50866" lon="-1.57245">
        <ele>52</ele>
        <time>2014-01-08T14:52:45Z</time>
      </trkpt>
      <trkpt lat="46.50864" lon="-1.57241">
        <ele>52</ele>
        <time>2014-01-08T14:52:48Z</time>
      </trkpt>
      <trkpt lat="46.50861" lon="-1.57237">
        <ele>52</ele>
        <time>2014-01-08T14:52:51Z</time>
      </trkpt>
      <trkpt lat="46.50859" lon="-1.57233">
        <ele>52</ele>
        <time>2014-01-08T14:52:54Z</time>
      </trkpt>
      <trkpt lat="46.50856" lon="-1.57229">
        <ele>52</ele>
        <time>2014-01-08T14:52:57Z</time>
      </trkpt>
      <trkpt lat="46.50854" lon="-1.57225">
        <ele>52</ele>
        <time>2014-01-08T14:53:00Z</time>
      </trkpt>
      <trkpt lat="46.50851" lon="-1.57221">
        <ele>52</ele>
        <time>2014-01-08T14:53:03Z</time>
      </trkpt>
      <trkpt lat="46.50849" lon="-1.57217">
        <ele>52</ele>
        <time>2014-01-08T14:53:06Z</time>
      </trkpt>
      <trkpt lat="46.50846" lon="-1.57213">
        <ele>52</ele>
        <time>2014-01-08T14:53:09Z</time>
      </trkpt>
      <trkpt lat="46.50843" lon="-1.57208">
        <ele>52</ele>
        <time>2014-01-08T14:53:13Z</time>
      </trkpt>
      <trkpt lat="46.50841" lon="-1.57203">
        <ele>52</ele>
        <time>2014-01-08T14:53:17Z</time>
      </trkpt>
      <trkpt lat="46.50838" lon="-1.57199">
        <ele>52</ele>
        <time>2014-01-08T14:53:20Z</time>
      </trkpt>
      <trkpt lat="46.50836" lon="-1.57196">
        <ele>52</ele>
        <time>2014-01-08T14:53:23Z</time>
      </trkpt>
      <trkpt lat="46.50834" lon="-1.57192">
        <ele>52</ele>
        <time>2014-01-08T14:53:26Z</time>
      </trkpt>
      <trkpt lat="46.50831" lon="-1.57187">
        <ele>52</ele>
        <time>2014-01-08T14:53:29Z</time>
      </trkpt>
      <trkpt lat="46.50829" lon="-1.57183">
        <ele>52</ele>
        <time>2014-01-08T14:53:32Z</time>
      </trkpt>
      <trkpt lat="46.50827" lon="-1.57179">
        <ele>52</ele>
        <time>2014-01-08T14:53:35Z</time>
      </trkpt>
      <trkpt lat="46.50824" lon="-1.57175">
        <ele>52</ele>
        <time>2014-01-08T14:53:38Z</time>
      </trkpt>
      <trkpt lat="46.50824" lon="-1.57173">
        <ele>52</ele>
        <time>2014-01-08T14:53:39Z</time>
      </trkpt>
      <trkpt lat="46.50819" lon="-1.57166">
        <ele>52</ele>
        <time>2014-01-08T14:53:45Z</time>
      </trkpt>
      <trkpt lat="46.50817" lon="-1.57162">
        <ele>52</ele>
        <time>2014-01-08T14:53:48Z</time>
      </trkpt>
      <trkpt lat="46.50814" lon="-1.57158">
        <ele>52</ele>
        <time>2014-01-08T14:53:52Z</time>
      </trkpt>
      <trkpt lat="46.50811" lon="-1.57153">
        <ele>52</ele>
        <time>2014-01-08T14:53:56Z</time>
      </trkpt>
      <trkpt lat="46.50809" lon="-1.57148">
        <ele>52</ele>
        <time>2014-01-08T14:54:00Z</time>
      </trkpt>
      <trkpt lat="46.50806" lon="-1.57144">
        <ele>52</ele>
        <time>2014-01-08T14:54:04Z</time>
      </trkpt>
      <trkpt lat="46.50803" lon="-1.57139">
        <ele>52</ele>
        <time>2014-01-08T14:54:08Z</time>
      </trkpt>
      <trkpt lat="46.508" lon="-1.57134">
        <ele>52</ele>
        <time>2014-01-08T14:54:13Z</time>
      </trkpt>
      <trkpt lat="46.50798" lon="-1.5713">
        <ele>52</ele>
        <time>2014-01-08T14:54:17Z</time>
      </trkpt>
      <trkpt lat="46.50795" lon="-1.57124">
        <ele>52</ele>
        <time>2014-01-08T14:54:22Z</time>
      </trkpt>
      <trkpt lat="46.50793" lon="-1.57119">
        <ele>52</ele>
        <time>2014-01-08T14:54:26Z</time>
      </trkpt>
      <trkpt lat="46.50791" lon="-1.57115">
        <ele>52</ele>
        <time>2014-01-08T14:54:30Z</time>
      </trkpt>
      <trkpt lat="46.50789" lon="-1.5711">
        <ele>52</ele>
        <time>2014-01-08T14:54:34Z</time>
      </trkpt>
      <trkpt lat="46.50786" lon="-1.57106">
        <ele>52</ele>
        <time>2014-01-08T14:54:38Z</time>
      </trkpt>
      <trkpt lat="46.50783" lon="-1.57101">
        <ele>52</ele>
        <time>2014-01-08T14:54:42Z</time>
      </trkpt>
      <trkpt lat="46.50783" lon="-1.571">
        <ele>52</ele>
        <time>2014-01-08T14:54:43Z</time>
      </trkpt>
      <trkpt lat="46.50779" lon="-1.57093">
        <ele>52</ele>
        <time>2014-01-08T14:54:49Z</time>
      </trkpt>
      <trkpt lat="46.50776" lon="-1.57088">
        <ele>52</ele>
        <time>2014-01-08T14:54:53Z</time>
      </trkpt>
      <trkpt lat="46.50773" lon="-1.57084">
        <ele>52</ele>
        <time>2014-01-08T14:54:57Z</time>
      </trkpt>
      <trkpt lat="46.50771" lon="-1.57079">
        <ele>52</ele>
        <time>2014-01-08T14:55:01Z</time>
      </trkpt>
      <trkpt lat="46.50768" lon="-1.57075">
        <ele>52</ele>
        <time>2014-01-08T14:55:05Z</time>
      </trkpt>
      <trkpt lat="46.50765" lon="-1.57071">
        <ele>52</ele>
        <time>2014-01-08T14:55:09Z</time>
      </trkpt>
      <trkpt lat="46.50762" lon="-1.57067">
        <ele>52</ele>
        <time>2014-01-08T14:55:13Z</time>
      </trkpt>
      <trkpt lat="46.5076" lon="-1.57063">
        <ele>52</ele>
        <time>2014-01-08T14:55:17Z</time>
      </trkpt>
      <trkpt lat="46.50757" lon="-1.57059">
        <ele>52</ele>
        <time>2014-01-08T14:55:21Z</time>
      </trkpt>
      <trkpt lat="46.50754" lon="-1.57054">
        <ele>52</ele>
        <time>2014-01-08T14:55:26Z</time>
      </trkpt>
      <trkpt lat="46.50751" lon="-1.57051">
        <ele>52</ele>
        <time>2014-01-08T14:55:30Z</time>
      </trkpt>
      <trkpt lat="46.50748" lon="-1.57047">
        <ele>52</ele>
        <time>2014-01-08T14:55:34Z</time>
      </trkpt>
      <trkpt lat="46.50745" lon="-1.57042">
        <ele>52</ele>
        <time>2014-01-08T14:55:38Z</time>
      </trkpt>
      <trkpt lat="46.50742" lon="-1.57038">
        <ele>52</ele>
        <time>2014-01-08T14:55:43Z</time>
      </trkpt>
      <trkpt lat="46.50741" lon="-1.57037">
        <ele>52</ele>
        <time>2014-01-08T14:55:44Z</time>
      </trkpt>
      <trkpt lat="46.50736" lon="-1.57036">
        <ele>52</ele>
        <time>2014-01-08T14:55:52Z</time>
      </trkpt>
      <trkpt lat="46.50732" lon="-1.57037">
        <ele>52</ele>
        <time>2014-01-08T14:55:55Z</time>
      </trkpt>
      <trkpt lat="46.50729" lon="-1.57038">
        <ele>52</ele>
        <time>2014-01-08T14:55:58Z</time>
      </trkpt>
      <trkpt lat="46.50724" lon="-1.5704">
        <ele>52</ele>
        <time>2014-01-08T14:56:02Z</time>
      </trkpt>
      <trkpt lat="46.5072" lon="-1.57041">
        <ele>52</ele>
        <time>2014-01-08T14:56:06Z</time>
      </trkpt>
      <trkpt lat="46.50717" lon="-1.57043">
        <ele>52</ele>
        <time>2014-01-08T14:56:09Z</time>
      </trkpt>
      <trkpt lat="46.50713" lon="-1.57044">
        <ele>52</ele>
        <time>2014-01-08T14:56:12Z</time>
      </trkpt>
      <trkpt lat="46.5071" lon="-1.57046">
        <ele>52</ele>
        <time>2014-01-08T14:56:15Z</time>
      </trkpt>
      <trkpt lat="46.50707" lon="-1.57049">
        <ele>52</ele>
        <time>2014-01-08T14:56:19Z</time>
      </trkpt>
      <trkpt lat="46.50703" lon="-1.57053">
        <ele>52</ele>
        <time>2014-01-08T14:56:23Z</time>
      </trkpt>
      <trkpt lat="46.507" lon="-1.57057">
        <ele>52</ele>
        <time>2014-01-08T14:56:27Z</time>
      </trkpt>
      <trkpt lat="46.50696" lon="-1.57061">
        <ele>52</ele>
        <time>2014-01-08T14:56:31Z</time>
      </trkpt>
      <trkpt lat="46.50693" lon="-1.57064">
        <ele>52</ele>
        <time>2014-01-08T14:56:35Z</time>
      </trkpt>
      <trkpt lat="46.50689" lon="-1.57067">
        <ele>52</ele>
        <time>2014-01-08T14:56:39Z</time>
      </trkpt>
      <trkpt lat="46.50686" lon="-1.5707">
        <ele>52</ele>
        <time>2014-01-08T14:56:43Z</time>
      </trkpt>
      <trkpt lat="46.50683" lon="-1.57074">
        <ele>52</ele>
        <time>2014-01-08T14:56:47Z</time>
      </trkpt>
      <trkpt lat="46.50682" lon="-1.57075">
        <ele>52</ele>
        <time>2014-01-08T14:56:48Z</time>
      </trkpt>
      <trkpt lat="46.50675" lon="-1.5708">
        <ele>52</ele>
        <time>2014-01-08T14:56:55Z</time>
      </trkpt>
      <trkpt lat="46.50671" lon="-1.57083">
        <ele>52</ele>
        <time>2014-01-08T14:56:59Z</time>
      </trkpt>
      <trkpt lat="46.50667" lon="-1.57086">
        <ele>52</ele>
        <time>2014-01-08T14:57:03Z</time>
      </trkpt>
      <trkpt lat="46.50664" lon="-1.5709">
        <ele>52</ele>
        <time>2014-01-08T14:57:07Z</time>
      </trkpt>
      <trkpt lat="46.50661" lon="-1.57093">
        <ele>52</ele>
        <time>2014-01-08T14:57:10Z</time>
      </trkpt>
      <trkpt lat="46.50658" lon="-1.57098">
        <ele>52</ele>
        <time>2014-01-08T14:57:14Z</time>
      </trkpt>
      <trkpt lat="46.50656" lon="-1.57101">
        <ele>52</ele>
        <time>2014-01-08T14:57:17Z</time>
      </trkpt>
      <trkpt lat="46.50653" lon="-1.57104">
        <ele>52</ele>
        <time>2014-01-08T14:57:20Z</time>
      </trkpt>
      <trkpt lat="46.50649" lon="-1.57108">
        <ele>52</ele>
        <time>2014-01-08T14:57:24Z</time>
      </trkpt>
      <trkpt lat="46.50647" lon="-1.57111">
        <ele>52</ele>
        <time>2014-01-08T14:57:28Z</time>
      </trkpt>
      <trkpt lat="46.50644" lon="-1.57116">
        <ele>52</ele>
        <time>2014-01-08T14:57:33Z</time>
      </trkpt>
      <trkpt lat="46.50641" lon="-1.57121">
        <ele>52</ele>
        <time>2014-01-08T14:57:37Z</time>
      </trkpt>
      <trkpt lat="46.50638" lon="-1.57124">
        <ele>52</ele>
        <time>2014-01-08T14:57:41Z</time>
      </trkpt>
      <trkpt lat="46.50635" lon="-1.57128">
        <ele>52</ele>
        <time>2014-01-08T14:57:45Z</time>
      </trkpt>
      <trkpt lat="46.50632" lon="-1.57131">
        <ele>52</ele>
        <time>2014-01-08T14:57:48Z</time>
      </trkpt>
      <trkpt lat="46.50631" lon="-1.57133">
        <ele>52</ele>
        <time>2014-01-08T14:57:49Z</time>
      </trkpt>
      <trkpt lat="46.50626" lon="-1.5714">
        <ele>52</ele>
        <time>2014-01-08T14:57:55Z</time>
      </trkpt>
      <trkpt lat="46.50623" lon="-1.57144">
        <ele>52</ele>
        <time>2014-01-08T14:57:59Z</time>
      </trkpt>
      <trkpt lat="46.50621" lon="-1.57148">
        <ele>52</ele>
        <time>2014-01-08T14:58:02Z</time>
      </trkpt>
      <trkpt lat="46.50618" lon="-1.57152">
        <ele>52</ele>
        <time>2014-01-08T14:58:06Z</time>
      </trkpt>
      <trkpt lat="46.50615" lon="-1.57156">
        <ele>52</ele>
        <time>2014-01-08T14:58:10Z</time>
      </trkpt>
      <trkpt lat="46.50611" lon="-1.5716">
        <ele>52</ele>
        <time>2014-01-08T14:58:14Z</time>
      </trkpt>
      <trkpt lat="46.50608" lon="-1.57164">
        <ele>52</ele>
        <time>2014-01-08T14:58:19Z</time>
      </trkpt>
      <trkpt lat="46.50605" lon="-1.57166">
        <ele>52</ele>
        <time>2014-01-08T14:58:22Z</time>
      </trkpt>
      <trkpt lat="46.50603" lon="-1.5717">
        <ele>52</ele>
        <time>2014-01-08T14:58:25Z</time>
      </trkpt>
      <trkpt lat="46.50599" lon="-1.57173">
        <ele>52</ele>
        <time>2014-01-08T14:58:29Z</time>
      </trkpt>
      <trkpt lat="46.50595" lon="-1.57176">
        <ele>52</ele>
        <time>2014-01-08T14:58:33Z</time>
      </trkpt>
      <trkpt lat="46.50591" lon="-1.5718">
        <ele>52</ele>
        <time>2014-01-08T14:58:37Z</time>
      </trkpt>
      <trkpt lat="46.50588" lon="-1.57183">
        <ele>52</ele>
        <time>2014-01-08T14:58:41Z</time>
      </trkpt>
      <trkpt lat="46.50584" lon="-1.57187">
        <ele>52</ele>
        <time>2014-01-08T14:58:45Z</time>
      </trkpt>
      <trkpt lat="46.50581" lon="-1.57189">
        <ele>51</ele>
        <time>2014-01-08T14:58:49Z</time>
      </trkpt>
      <trkpt lat="46.5058" lon="-1.5719">
        <ele>51</ele>
        <time>2014-01-08T14:58:50Z</time>
      </trkpt>
    </trkseg>
  </trk>
</gpx>